Another Hard Day at the Office Weather Stats

 
 
 

High monthly outside Temperature, 22.8 , C
Low monthly outside Temperature, -1.0 , C
High yearly outside Temperature, 30.9 , C
Low yearly outside Temperature, -2.2 , C

Low monthly barometer, 1001.1 , mb
High monthly barometer, 1028.0 , mb
Low yearly barometer, 975.0 , mb
High yearly barometer 1041.1 , mb

High wind speed, 25.0 , mph
Time of High wind speed, 21:37 , mph
High monthly wind speed, 47.0 , mph
High yearly wind speed, 55.0 , mph

 

 




3126
                    Temp     Hi    Low   Out    Dew  Wind  Wind   Wind    Hi    Hi   Wind   Heat    THW                Rain    Heat    Cool    In     In    In     In     In   In Air  Wind  Wind    ISS   Arc.
  Date    Time     Out   Temp   Temp   Hum    Pt. Speed   Dir    Run Speed   Dir  Chill  Index  Index   Bar    Rain  Rate    D-D     D-D    Temp   Hum    Dew   Heat    EMC Density  Samp   Tx   Recept  Int.
---------------------------------------------------------------------------------------------------------------------------------------------------------------------------------------------------------------
24/05/18   0:05   14.4   14.6   14.4    80   11.0   9.0     N   0.75  14.0     N   12.9   14.3   12.8  1019.5  0.00  0.00   0.014   0.000   26.6    43   13.0   26.3   8.05  .0729    116    1    100.0    5 
24/05/18   0:10   14.3   14.4   14.3    80   10.9  10.0     N   0.83  17.0   NNE   12.4   14.2   12.3  1019.5  0.00  0.00   0.014   0.000   26.6    43   13.0   26.3   8.05  .0729    117    1    100.0    5 
24/05/18   0:15   14.3   14.3   14.3    81   11.1  11.0   NNE   0.92  17.0   NNE   12.1   14.2   11.9  1019.3  0.00  0.00   0.014   0.000   26.6    43   13.0   26.3   8.05  .0729    116    1    100.0    5 
24/05/18   0:20   14.3   14.3   14.2    81   11.1  11.0   NNE   0.92  19.0   NNE   12.1   14.2   11.9  1019.6  0.00  0.00   0.014   0.000   26.6    43   13.0   26.2   8.05  .0729    116    1    100.0    5 
24/05/18   0:25   14.3   14.3   14.2    81   11.1  11.0   NNE   0.92  18.0   NNE   12.1   14.2   11.9  1019.7  0.00  0.00   0.014   0.000   26.6    43   13.0   26.2   8.05  .0730    116    1    100.0    5 
24/05/18   0:30   14.2   14.2   14.2    81   11.0  11.0   NNE   0.92  17.0   NNE   12.0   14.1   11.9  1019.7  0.00  0.00   0.014   0.000   26.6    43   13.0   26.2   8.05  .0730    117    1    100.0    5 
24/05/18   0:35   14.2   14.2   14.2    81   11.0  10.0   NNE   0.83  18.0   NNE   12.3   14.1   12.2  1019.6  0.00  0.00   0.014   0.000   26.6    43   13.0   26.2   8.05  .0729    117    1    100.0    5 
24/05/18   0:40   14.2   14.2   14.2    81   11.0  10.0   NNE   0.83  16.0     N   12.3   14.1   12.2  1019.6  0.00  0.00   0.014   0.000   26.5    43   12.9   26.2   8.05  .0730    116    1    100.0    5 
24/05/18   0:45   14.2   14.2   14.2    81   11.0  11.0   NNE   0.92  19.0     N   11.9   14.1   11.8  1019.6  0.00  0.00   0.014   0.000   26.5    43   12.9   26.2   8.05  .0730    116    1    100.0    5 
24/05/18   0:50   14.2   14.2   14.2    81   11.0  11.0   NNE   0.92  20.0   NNE   11.9   14.1   11.8  1019.5  0.00  0.00   0.014   0.000   26.5    43   12.9   26.2   8.05  .0730    117    1    100.0    5 
24/05/18   0:55   14.1   14.2   14.1    81   10.9  12.0   NNE   1.00  20.0   NNE   11.6   14.0   11.4  1019.5  0.00  0.00   0.015   0.000   26.5    43   12.9   26.2   8.05  .0730    116    1    100.0    5 
24/05/18   1:00   14.1   14.1   14.1    81   10.9  12.0   NNE   1.00  21.0   NNE   11.6   14.0   11.4  1019.5  0.00  0.00   0.015   0.000   26.4    43   12.9   26.1   8.05  .0730    116    1    100.0    5 
24/05/18   1:05   14.1   14.1   14.1    81   10.8  11.0   NNE   0.92  18.0   NNE   11.8   13.9   11.7  1019.4  0.00  0.00   0.015   0.000   26.4    43   12.9   26.1   8.05  .0730    117    1    100.0    5 
24/05/18   1:10   14.1   14.1   14.1    81   10.8  10.0   NNE   0.83  17.0   NNE   12.1   13.9   12.0  1019.4  0.00  0.00   0.015   0.000   26.4    43   12.9   26.1   8.05  .0730    117    1    100.0    5 
24/05/18   1:15   14.1   14.1   14.1    81   10.8  13.0   NNE   1.08  20.0   NNE   11.2   13.9   11.1  1019.3  0.00  0.00   0.015   0.000   26.4    43   12.9   26.1   8.05  .0730    115    1    100.0    5 
24/05/18   1:20   14.1   14.1   14.1    82   11.0  12.0   NNE   1.00  18.0   NNE   11.5   13.9   11.4  1019.2  0.00  0.00   0.015   0.000   26.4    44   13.2   26.1   8.16  .0729    116    1    100.0    5 
24/05/18   1:25   14.0   14.1   14.0    83   11.2  11.0   NNE   0.92  18.0   NNE   11.7   13.9   11.6  1019.2  0.00  0.00   0.015   0.000   26.4    44   13.2   26.1   8.16  .0729    116    1    100.0    5 
24/05/18   1:30   13.8   14.0   13.8    84   11.2  12.0     N   1.00  19.0     N   11.2   13.8   11.2  1019.2  0.00  0.00   0.016   0.000   26.4    43   12.8   26.1   8.05  .0730    115    1    100.0    5 
24/05/18   1:35   13.6   13.8   13.6    85   11.1  10.0     N   0.83  17.0     N   11.6   13.6   11.6  1019.1  0.01  0.00   0.016   0.000   26.4    44   13.2   26.1   8.16  .0729    117    1    100.0    5 
24/05/18   1:40   13.4   13.6   13.4    86   11.1  11.0   NNE   0.92  17.0     N   11.1   13.4   11.0  1019.2  0.00  0.00   0.017   0.000   26.4    44   13.2   26.1   8.16  .0729    117    1    100.0    5 
24/05/18   1:45   13.3   13.4   13.3    86   11.0  10.0   NNE   0.83  14.0     N   11.3   13.3   11.2  1019.1  0.00  0.00   0.017   0.000   26.4    44   13.2   26.1   8.16  .0729    116    1    100.0    5 
24/05/18   1:50   13.2   13.3   13.2    87   11.1  10.0   NNE   0.83  14.0   NNE   11.2   13.2   11.2  1019.1  0.00  0.00   0.018   0.000   26.3    44   13.1   26.1   8.16  .0729    117    1    100.0    5 
24/05/18   1:55   13.1   13.2   13.1    87   11.0   9.0     N   0.75  15.0   NNE   11.4   13.1   11.4  1019.1  0.00  0.00   0.018   0.000   26.3    44   13.1   26.1   8.16  .0729    116    1    100.0    5 
24/05/18   2:00   13.1   13.1   13.1    87   10.9   9.0     N   0.75  14.0   NNE   11.3   13.1   11.3  1019.0  0.01  0.00   0.018   0.000   26.3    44   13.1   26.1   8.16  .0729    116    1    100.0    5 
24/05/18   2:05   13.1   13.1   13.1    88   11.1   9.0     N   0.75  14.0     N   11.3   13.1   11.3  1018.9  0.02  0.60   0.018   0.000   26.3    44   13.1   26.1   8.16  .0729    117    1    100.0    5 
24/05/18   2:10   12.9   13.1   12.9    88   11.0  10.0     N   0.83  16.0     N   10.8   12.9   10.8  1018.8  0.00  0.08   0.019   0.000   26.3    44   13.1   26.1   8.16  .0729    117    1    100.0    5 
24/05/18   2:15   12.8   12.9   12.8    88   10.9  10.0     N   0.83  15.0     N   10.7   12.8   10.7  1018.8  0.00  0.05   0.019   0.000   26.3    44   13.1   26.1   8.16  .0729    115    1    100.0    5 
24/05/18   2:20   12.7   12.8   12.7    89   11.0  10.0     N   0.83  18.0   NNE   10.6   12.8   10.6  1018.7  0.00  0.00   0.019   0.000   26.3    44   13.1   26.1   8.16  .0729    116    1    100.0    5 
24/05/18   2:25   12.7   12.7   12.7    89   10.9   9.0     N   0.75  15.0   NNW   10.9   12.7   10.9  1018.7  0.00  0.00   0.020   0.000   26.3    44   13.1   26.1   8.16  .0729    117    1    100.0    5 
24/05/18   2:30   12.6   12.7   12.6    89   10.8  10.0     N   0.83  14.0   NNE   10.4   12.6   10.4  1018.7  0.00  0.00   0.020   0.000   26.3    44   13.1   26.1   8.16  .0729    116    1    100.0    5 
24/05/18   2:35   12.5   12.6   12.5    89   10.7  10.0     N   0.83  17.0     N   10.3   12.6   10.4  1018.8  0.00  0.00   0.020   0.000   26.2    44   13.0   26.0   8.17  .0730    117    1    100.0    5 
24/05/18   2:40   12.4   12.5   12.4    89   10.7  10.0     N   0.83  16.0   NNE   10.2   12.5   10.3  1018.7  0.00  0.00   0.020   0.000   26.2    44   13.0   26.0   8.17  .0730    115    1    100.0    5 
24/05/18   2:45   12.4   12.4   12.4    89   10.6  11.0     N   0.92  16.0   NNW    9.9   12.4    9.9  1018.7  0.00  0.00   0.021   0.000   26.2    44   13.0   26.0   8.17  .0730    117    1    100.0    5 
24/05/18   2:50   12.3   12.4   12.3    89   10.6  10.0     N   0.83  15.0     N   10.1   12.4   10.2  1018.7  0.00  0.00   0.021   0.000   26.2    44   13.0   26.0   8.17  .0730    117    1    100.0    5 
24/05/18   2:55   12.3   12.3   12.3    90   10.7  12.0     N   1.00  19.0   NNE    9.5   12.4    9.6  1018.7  0.00  0.00   0.021   0.000   26.2    44   13.0   26.0   8.17  .0730    117    1    100.0    5 
24/05/18   3:00   12.3   12.3   12.3    90   10.7  10.0     N   0.83  18.0     N   10.1   12.4   10.2  1018.7  0.00  0.00   0.021   0.000   26.2    44   13.0   26.0   8.17  .0730    116    1    100.0    5 
24/05/18   3:05   12.3   12.3   12.3    90   10.7  10.0     N   0.83  16.0   NNE   10.1   12.3   10.1  1018.7  0.00  0.00   0.021   0.000   26.2    44   13.0   25.9   8.17  .0730    116    1    100.0    5 
24/05/18   3:10   12.3   12.3   12.3    90   10.7   9.0     N   0.75  14.0     N   10.4   12.4   10.5  1018.7  0.00  0.00   0.021   0.000   26.2    44   13.0   25.9   8.17  .0730    117    1    100.0    5 
24/05/18   3:15   12.3   12.3   12.3    90   10.7  12.0     N   1.00  18.0     N    9.5   12.4    9.6  1018.8  0.00  0.00   0.021   0.000   26.2    44   13.0   25.9   8.17  .0730    117    1    100.0    5 
24/05/18   3:20   12.3   12.3   12.3    90   10.7  11.0     N   0.92  18.0     N    9.7   12.3    9.8  1018.8  0.00  0.00   0.021   0.000   26.2    44   13.0   25.9   8.17  .0730    117    1    100.0    5 
24/05/18   3:25   12.3   12.3   12.3    90   10.7  10.0     N   0.83  16.0   NNE   10.1   12.3   10.1  1018.8  0.00  0.00   0.021   0.000   26.2    44   13.0   25.9   8.17  .0730    116    1    100.0    5 
24/05/18   3:30   12.3   12.3   12.3    90   10.7  10.0     N   0.83  14.0     N   10.1   12.3   10.1  1018.8  0.00  0.00   0.021   0.000   26.1    44   12.9   25.9   8.17  .0730    116    1    100.0    5 
24/05/18   3:35   12.3   12.3   12.3    90   10.7   9.0     N   0.75  14.0     N   10.4   12.3   10.4  1018.9  0.00  0.00   0.021   0.000   26.1    44   12.9   25.9   8.17  .0730    117    1    100.0    5 
24/05/18   3:40   12.3   12.3   12.3    90   10.7  11.0   NNE   0.92  19.0   NNE    9.7   12.3    9.8  1018.9  0.00  0.00   0.021   0.000   26.1    44   12.9   25.9   8.17  .0730    116    1    100.0    5 
24/05/18   3:45   12.3   12.3   12.3    90   10.7  11.0   NNE   0.92  18.0   NNE    9.7   12.3    9.8  1019.0  0.00  0.00   0.021   0.000   26.1    44   12.9   25.9   8.17  .0730    116    1    100.0    5 
24/05/18   3:50   12.3   12.3   12.3    90   10.7  12.0   NNE   1.00  20.0   NNE    9.4   12.3    9.5  1018.9  0.00  0.00   0.021   0.000   26.1    44   12.9   25.9   8.17  .0730    117    1    100.0    5 
24/05/18   3:55   12.3   12.3   12.3    90   10.7  10.0     N   0.83  16.0   NNE   10.1   12.3   10.1  1018.8  0.00  0.00   0.021   0.000   26.2    44   13.0   25.9   8.17  .0730    117    1    100.0    5 
24/05/18   4:00   12.3   12.3   12.3    91   10.9  10.0     N   0.83  16.0     N   10.1   12.3   10.1  1018.8  0.00  0.00   0.021   0.000   26.2    44   13.0   25.9   8.17  .0730    116    1    100.0    5 
24/05/18   4:05   12.2   12.3   12.2    91   10.8  11.0   NNE   0.92  19.0   NNE    9.7   12.3    9.7  1018.7  0.00  0.00   0.021   0.000   26.2    44   13.0   25.9   8.17  .0730    117    1    100.0    5 
24/05/18   4:10   12.2   12.2   12.2    91   10.7  10.0   NNE   0.83  18.0   NNE    9.9   12.2   10.0  1018.8  0.00  0.00   0.021   0.000   26.1    44   12.9   25.9   8.17  .0730    117    1    100.0    5 
24/05/18   4:15   12.2   12.2   12.2    91   10.7  11.0   NNE   0.92  16.0     N    9.6   12.2    9.7  1018.6  0.00  0.00   0.021   0.000   26.1    44   12.9   25.9   8.17  .0730    116    1    100.0    5 
24/05/18   4:20   12.1   12.2   12.1    91   10.7  12.0     N   1.00  20.0     N    9.3   12.2    9.3  1018.5  0.00  0.00   0.022   0.000   26.1    44   12.9   25.9   8.17  .0730    115    1    100.0    5 
24/05/18   4:25   12.1   12.2   12.1    91   10.7  11.0     N   0.92  18.0     N    9.6   12.2    9.6  1018.4  0.00  0.00   0.022   0.000   26.1    44   12.9   25.8   8.17  .0730    117    1    100.0    5 
24/05/18   4:30   12.1   12.1   12.1    91   10.6   9.0     N   0.75  16.0     N   10.1   12.1   10.2  1018.4  0.00  0.00   0.022   0.000   26.0    44   12.8   25.8   8.17  .0730    117    1    100.0    5 
24/05/18   4:35   12.1   12.1   12.1    91   10.6   9.0     N   0.75  16.0   NNE   10.1   12.1   10.2  1018.3  0.00  0.00   0.022   0.000   26.0    44   12.8   25.8   8.17  .0730    116    1    100.0    5 
24/05/18   4:40   12.1   12.1   12.1    91   10.6   9.0     N   0.75  14.0     N   10.1   12.1   10.2  1018.3  0.00  0.00   0.022   0.000   26.0    44   12.8   25.8   8.17  .0730    117    1    100.0    5 
24/05/18   4:45   12.0   12.1   12.0    91   10.6  10.0     N   0.83  17.0     N    9.7   12.1    9.8  1018.2  0.00  0.00   0.022   0.000   25.9    44   12.8   25.7   8.18  .0730    117    1    100.0    5 
24/05/18   4:50   12.0   12.0   12.0    91   10.6  10.0     N   0.83  16.0     N    9.7   12.1    9.8  1018.2  0.00  0.00   0.022   0.000   25.9    44   12.8   25.7   8.18  .0730    117    1    100.0    5 
24/05/18   4:55   11.9   12.0   11.9    91   10.5   9.0     N   0.75  16.0   NNE   10.0   12.0   10.1  1018.2  0.00  0.00   0.022   0.000   25.9    44   12.7   25.7   8.18  .0730    117    1    100.0    5 
24/05/18   5:00   11.9   11.9   11.9    91   10.5  10.0     N   0.83  16.0   NNW    9.7   12.0    9.7  1018.2  0.00  0.00   0.022   0.000   25.9    44   12.7   25.7   8.18  .0730    117    1    100.0    5 
24/05/18   5:05   11.9   11.9   11.9    91   10.5  10.0     N   0.83  15.0     N    9.7   12.0    9.7  1018.2  0.00  0.00   0.022   0.000   25.9    44   12.7   25.7   8.18  .0730    113    1     99.1    5 
24/05/18   5:10   11.9   11.9   11.9    91   10.5   9.0     N   0.75  16.0     N   10.0   12.0   10.1  1018.2  0.00  0.00   0.022   0.000   25.9    44   12.7   25.7   8.18  .0730    116    1    100.0    5 
24/05/18   5:15   12.0   12.0   11.9    91   10.6   8.0     N   0.67  12.0   NNE   10.4   12.1   10.5  1018.3  0.00  0.00   0.022   0.000   25.9    44   12.7   25.7   8.18  .0730    117    1    100.0    5 
24/05/18   5:20   12.0   12.0   12.0    92   10.7   7.0   NNE   0.58  12.0   NNE   10.8   12.1   10.9  1018.3  0.00  0.00   0.022   0.000   25.8    44   12.7   25.6   8.18  .0730    116    1    100.0    5 
24/05/18   5:25   12.1   12.1   12.0    92   10.8   9.0   NNE   0.75  15.0   NNE   10.1   12.2   10.2  1018.3  0.00  0.00   0.022   0.000   25.8    44   12.7   25.6   8.18  .0730    115    1    100.0    5 
24/05/18   5:30   12.1   12.1   12.1    92   10.9   9.0     N   0.75  14.0   NNE   10.2   12.2   10.3  1018.3  0.00  0.00   0.022   0.000   25.8    44   12.6   25.5   8.18  .0731    116    1    100.0    5 
24/05/18   5:35   12.2   12.2   12.1    92   10.9   8.0     N   0.67  13.0   NNW   10.7   12.2   10.7  1018.3  0.00  0.00   0.021   0.000   25.8    44   12.6   25.5   8.18  .0731    115    1    100.0    5 
24/05/18   5:40   12.2   12.2   12.2    92   11.0  10.0   NNE   0.83  16.0   NNE   10.0   12.3   10.1  1018.2  0.00  0.00   0.021   0.000   25.8    45   12.9   25.6   8.38  .0730    117    1    100.0    5 
24/05/18   5:45   12.3   12.3   12.2    92   11.0   8.0     N   0.67  14.0   NNE   10.8   12.3   10.8  1018.2  0.00  0.00   0.021   0.000   25.8    44   12.6   25.5   8.18  .0731    114    1    100.0    5 
24/05/18   5:50   12.3   12.3   12.2    92   11.0   8.0     N   0.67  12.0     N   10.8   12.3   10.8  1018.2  0.00  0.00   0.021   0.000   25.8    44   12.6   25.5   8.18  .0731    117    1    100.0    5 
24/05/18   5:55   12.3   12.3   12.3    92   11.1   8.0     N   0.67  12.0   NNW   10.8   12.4   10.9  1018.2  0.00  0.00   0.021   0.000   25.8    44   12.6   25.5   8.18  .0731    116    1    100.0    5 
24/05/18   6:00   12.4   12.4   12.3    92   11.1   9.0     N   0.75  16.0   NNE   10.6   12.4   10.6  1018.3  0.00  0.00   0.021   0.000   25.7    44   12.6   25.4   8.18  .0731    116    1    100.0    5 
24/05/18   6:05   12.4   12.4   12.3    92   11.1   8.0     N   0.67  13.0   NNE   10.9   12.4   11.0  1018.2  0.00  0.00   0.021   0.000   25.7    45   12.9   25.5   8.38  .0730    115    1    100.0    5 
24/05/18   6:10   12.4   12.4   12.4    92   11.1   8.0     N   0.67  13.0     N   10.9   12.4   11.0  1018.2  0.00  0.00   0.021   0.000   25.7    44   12.6   25.4   8.18  .0731    116    1    100.0    5 
24/05/18   6:15   12.4   12.4   12.4    92   11.2   9.0     N   0.75  14.0     N   10.6   12.5   10.7  1018.3  0.00  0.00   0.020   0.000   25.7    45   12.9   25.5   8.38  .0731    117    1    100.0    5 
24/05/18   6:20   12.4   12.4   12.4    92   11.2   9.0     N   0.75  15.0     N   10.6   12.5   10.7  1018.4  0.00  0.00   0.020   0.000   25.7    45   12.9   25.5   8.38  .0731    118    1    100.0    5 
24/05/18   6:25   12.5   12.5   12.4    92   11.2   9.0   NNE   0.75  17.0   NNE   10.7   12.6   10.7  1018.4  0.00  0.00   0.020   0.000   25.7    45   12.9   25.5   8.38  .0731    117    1    100.0    5 
24/05/18   6:30   12.6   12.6   12.5    92   11.3   9.0     N   0.75  15.0     N   10.7   12.6   10.8  1018.4  0.00  0.00   0.020   0.000   25.7    45   12.9   25.5   8.38  .0731    117    1    100.0    5 
24/05/18   6:35   12.6   12.6   12.6    92   11.3   9.0   NNE   0.75  15.0   NNE   10.7   12.6   10.8  1018.3  0.00  0.00   0.020   0.000   25.7    45   12.8   25.4   8.39  .0731    117    1    100.0    5 
24/05/18   6:40   12.6   12.6   12.6    92   11.3   9.0   NNE   0.75  16.0   NNE   10.7   12.6   10.8  1018.4  0.00  0.00   0.020   0.000   25.7    45   12.8   25.4   8.39  .0731    117    1    100.0    5 
24/05/18   6:45   12.6   12.6   12.6    92   11.3  10.0   NNE   0.83  14.0     N   10.4   12.7   10.5  1018.3  0.00  0.00   0.020   0.000   25.7    45   12.8   25.4   8.39  .0731    117    1    100.0    5 
24/05/18   6:50   12.6   12.6   12.6    92   11.3  10.0   NNE   0.83  16.0   NNE   10.4   12.7   10.5  1018.3  0.00  0.00   0.020   0.000   25.7    45   12.8   25.4   8.39  .0731    116    1    100.0    5 
24/05/18   6:55   12.7   12.7   12.6    92   11.4  10.0   NNE   0.83  16.0   NNE   10.5   12.7   10.6  1018.3  0.00  0.00   0.020   0.000   25.7    45   12.8   25.4   8.39  .0731    116    1    100.0    5 
24/05/18   7:00   12.7   12.7   12.6    92   11.4   9.0   NNE   0.75  14.0     N   10.9   12.7   10.9  1018.4  0.00  0.00   0.020   0.000   25.6    45   12.8   25.4   8.39  .0731    117    1    100.0    5 
24/05/18   7:05   12.7   12.7   12.7    92   11.4  10.0   NNE   0.83  17.0   NNE   10.5   12.7   10.6  1018.3  0.00  0.00   0.020   0.000   25.7    45   12.8   25.4   8.39  .0731    116    1    100.0    5 
24/05/18   7:10   12.7   12.7   12.7    92   11.5   8.0     N   0.67  13.0     N   11.3   12.8   11.4  1018.3  0.00  0.00   0.019   0.000   25.6    45   12.8   25.4   8.39  .0731    116    1    100.0    5 
24/05/18   7:15   12.7   12.7   12.7    92   11.5  10.0   NNE   0.83  18.0   NNE   10.6   12.8   10.6  1018.3  0.00  0.00   0.019   0.000   25.6    45   12.8   25.4   8.39  .0731    116    1    100.0    5 
24/05/18   7:20   12.8   12.8   12.7    92   11.5  11.0   NNE   0.92  16.0     N   10.3   12.8   10.4  1018.2  0.00  0.00   0.019   0.000   25.6    45   12.8   25.4   8.39  .0731    116    1    100.0    5 
24/05/18   7:25   12.8   12.8   12.8    92   11.6   8.0     N   0.67  14.0   NNE   11.4   12.9   11.5  1018.2  0.00  0.00   0.019   0.000   25.6    45   12.8   25.4   8.39  .0731    118    1    100.0    5 
24/05/18   7:30   12.9   12.9   12.8    92   11.6   8.0     N   0.67  12.0   NNE   11.5   12.9   11.6  1018.2  0.00  0.00   0.019   0.000   25.6    45   12.7   25.3   8.39  .0731    117    1    100.0    5 
24/05/18   7:35   12.9   12.9   12.9    92   11.7   8.0     N   0.67  15.0   NNW   11.6   13.0   11.7  1018.3  0.00  0.00   0.019   0.000   25.6    45   12.8   25.4   8.39  .0731    117    1    100.0    5 
24/05/18   7:40   12.9   12.9   12.9    91   11.5   9.0     N   0.75  14.0     N   11.2   13.0   11.3  1018.3  0.00  0.00   0.019   0.000   25.6    45   12.8   25.4   8.39  .0731    115    1    100.0    5 
24/05/18   7:45   13.0   13.0   12.9    91   11.6   8.0   NNE   0.67  14.0   NNE   11.7   13.1   11.7  1018.3  0.00  0.00   0.019   0.000   25.7    45   12.8   25.4   8.39  .0731    115    1    100.0    5 
24/05/18   7:50   12.9   13.0   12.9    91   11.5  10.0     N   0.83  15.0     N   10.8   13.0   10.9  1018.4  0.00  0.00   0.019   0.000   25.7    45   12.8   25.4   8.39  .0731    115    1    100.0    5 
24/05/18   7:55   13.0   13.0   12.9    91   11.6  10.0   NNE   0.83  19.0   NNE   10.9   13.1   10.9  1018.5  0.00  0.00   0.019   0.000   25.7    45   12.8   25.4   8.39  .0731    115    1    100.0    5 
24/05/18   8:00   13.0   13.0   12.9    91   11.6   9.0     N   0.75  15.0     N   11.3   13.1   11.3  1018.5  0.00  0.00   0.019   0.000   25.7    45   12.8   25.4   8.39  .0731    116    1    100.0    5 
24/05/18   8:05   13.0   13.0   13.0    91   11.6  10.0   NNE   0.83  15.0   NNE   10.9   13.1   10.9  1018.5  0.00  0.00   0.019   0.000   25.7    45   12.8   25.4   8.39  .0731    116    1    100.0    5 
24/05/18   8:10   13.0   13.0   13.0    91   11.6  10.0     N   0.83  17.0   NNE   10.9   13.1   10.9  1018.6  0.00  0.00   0.019   0.000   25.7    45   12.8   25.4   8.39  .0731    117    1    100.0    5 
24/05/18   8:15   13.0   13.0   13.0    91   11.6  11.0   NNE   0.92  17.0   NNE   10.6   13.1   10.6  1018.6  0.00  0.00   0.019   0.000   25.7    45   12.9   25.5   8.38  .0731    117    1    100.0    5 
24/05/18   8:20   13.0   13.1   13.0    91   11.6  10.0   NNE   0.83  15.0   NNE   10.9   13.1   10.9  1018.6  0.00  0.00   0.019   0.000   25.7    45   12.8   25.4   8.39  .0731    115    1    100.0    5 
24/05/18   8:25   13.1   13.1   13.0    91   11.6  10.0   NNE   0.83  15.0     N   10.9   13.1   11.0  1018.6  0.00  0.00   0.018   0.000   25.7    45   12.8   25.4   8.39  .0731    116    1    100.0    5 
24/05/18   8:30   13.1   13.1   13.1    92   11.8   8.0     N   0.67  13.0     N   11.7   13.1   11.8  1018.6  0.00  0.00   0.018   0.000   25.7    45   12.8   25.4   8.39  .0731    118    1    100.0    5 
24/05/18   8:35   13.1   13.1   13.1    92   11.8   9.0   NNE   0.75  16.0   NNE   11.3   13.1   11.4  1018.6  0.00  0.00   0.018   0.000   25.7    46   13.2   25.5   8.49  .0731    117    1    100.0    5 
24/05/18   8:40   13.1   13.1   13.1    92   11.8   8.0     N   0.67  14.0   NNE   11.7   13.1   11.8  1018.6  0.00  0.00   0.018   0.000   25.7    47   13.6   25.6   8.68  .0730    117    1    100.0    5 
24/05/18   8:45   13.1   13.1   13.1    92   11.8   8.0     N   0.67  14.0   NNE   11.8   13.2   11.8  1018.6  0.00  0.00   0.018   0.000   25.7    47   13.6   25.6   8.68  .0730    115    1    100.0    5 
24/05/18   8:50   13.2   13.2   13.1    92   11.9   9.0   NNE   0.75  13.0     N   11.4   13.2   11.5  1018.5  0.00  0.00   0.018   0.000   25.7    47   13.5   25.6   8.69  .0730    116    1    100.0    5 
24/05/18   8:55   13.2   13.2   13.2    92   11.9   8.0     N   0.67  16.0     N   11.8   13.2   11.9  1018.5  0.00  0.00   0.018   0.000   25.7    47   13.5   25.6   8.69  .0730    117    1    100.0    5 
24/05/18   9:00   13.2   13.2   13.2    92   11.9  10.0     N   0.83  14.0   NNE   11.1   13.2   11.1  1018.5  0.00  0.00   0.018   0.000   25.7    46   13.2   25.5   8.49  .0731    117    1    100.0    5 
24/05/18   9:05   13.2   13.2   13.2    92   12.0   9.0   NNE   0.75  14.0   NNE   11.6   13.3   11.6  1018.4  0.00  0.00   0.018   0.000   25.7    46   13.2   25.5   8.49  .0731    117    1    100.0    5 
24/05/18   9:10   13.3   13.3   13.2    92   12.1   9.0     N   0.75  15.0   NNE   11.7   13.4   11.7  1018.4  0.00  0.00   0.017   0.000   25.7    46   13.2   25.5   8.49  .0731    116    1    100.0    5 
24/05/18   9:15   13.4   13.4   13.3    92   12.1   8.0     N   0.67  14.0   NNE   12.1   13.4   12.2  1018.4  0.00  0.00   0.017   0.000   25.7    46   13.2   25.5   8.49  .0731    116    1    100.0    5 
24/05/18   9:20   13.5   13.5   13.4    92   12.2  10.0   NNE   0.83  17.0   NNE   11.5   13.6   11.6  1018.4  0.00  0.00   0.017   0.000   25.7    46   13.2   25.5   8.49  .0731    116    1    100.0    5 
24/05/18   9:25   13.6   13.7   13.5    92   12.3  10.0   NNE   0.83  19.0     N   11.6   13.7   11.7  1018.3  0.00  0.00   0.016   0.000   25.6    46   13.1   25.4   8.49  .0731    115    1    100.0    5 
24/05/18   9:30   13.7   13.7   13.6    92   12.4  12.0   NNE   1.00  19.0     N   11.1   13.8   11.2  1018.3  0.00  0.00   0.016   0.000   25.6    46   13.1   25.4   8.49  .0731    118    1    100.0    5 
24/05/18   9:35   13.9   13.9   13.7    92   12.7  12.0   NNE   1.00  18.0   NNE   11.3   14.0   11.4  1018.2  0.00  0.00   0.015   0.000   25.6    46   13.1   25.4   8.49  .0731    117    1    100.0    5 
24/05/18   9:40   14.3   14.3   13.9    92   13.0  10.0     N   0.83  18.0   NNE   12.4   14.4   12.5  1018.2  0.00  0.00   0.014   0.000   25.6    46   13.1   25.4   8.49  .0731    117    1    100.0    5 
24/05/18   9:45   14.8   14.8   14.3    92   13.5  11.0   NNE   0.92  18.0   NNE   12.6   14.9   12.7  1018.3  0.00  0.00   0.012   0.000   25.6    46   13.1   25.4   8.49  .0731    117    1    100.0    5 
24/05/18   9:50   14.8   14.8   14.8    91   13.4  13.0   NNE   1.08  20.0   NNE   12.1   14.9   12.2  1018.2  0.00  0.00   0.012   0.000   25.6    46   13.1   25.4   8.49  .0731    115    1    100.0    5 
24/05/18   9:55   15.0   15.0   14.8    90   13.4  12.0   NNE   1.00  17.0   NNE   12.6   15.1   12.7  1018.2  0.00  0.00   0.012   0.000   25.7    46   13.2   25.5   8.49  .0730    115    1    100.0    5 
24/05/18  10:00   15.1   15.1   14.9    90   13.5   9.0   NNE   0.75  17.0   NNE   13.7   15.2   13.8  1018.2  0.00  0.00   0.011   0.000   25.7    46   13.2   25.5   8.49  .0730    117    1    100.0    5 
24/05/18  10:05   15.2   15.2   15.1    90   13.5  11.0   NNE   0.92  18.0   NNE   13.1   15.3   13.2  1018.3  0.00  0.00   0.011   0.000   25.7    46   13.2   25.6   8.48  .0730    115    1    100.0    5 
24/05/18  10:10   15.1   15.2   15.1    89   13.3  10.0   NNE   0.83  17.0   NNE   13.3   15.2   13.4  1018.3  0.00  0.00   0.011   0.000   25.7    46   13.2   25.6   8.48  .0730    115    1    100.0    5 
24/05/18  10:15   15.2   15.3   15.1    89   13.4   9.0   NNE   0.75  18.0   NNE   13.9   15.3   14.0  1018.3  0.00  0.00   0.011   0.000   25.7    46   13.2   25.6   8.48  .0730    113    1     99.1    5 
24/05/18  10:20   15.3   15.3   15.3    89   13.5  11.0   NNE   0.92  20.0   NNE   13.2   15.4   13.3  1018.3  0.00  0.00   0.011   0.000   25.8    46   13.3   25.6   8.48  .0730    117    1    100.0    5 
24/05/18  10:25   15.3   15.3   15.3    89   13.5  10.0   NNE   0.83  15.0   NNE   13.6   15.4   13.7  1018.3  0.00  0.00   0.010   0.000   25.8    46   13.3   25.6   8.48  .0730    117    1    100.0    5 
24/05/18  10:30   15.4   15.4   15.3    89   13.6   7.0     N   0.58  11.0   NNE   15.0   15.6   15.1  1018.3  0.00  0.00   0.010   0.000   25.8    46   13.3   25.6   8.48  .0730    117    1    100.0    5 
24/05/18  10:35   15.6   15.6   15.4    88   13.6   8.0     N   0.67  13.0     N   14.7   15.7   14.8  1018.3  0.00  0.00   0.010   0.000   25.8    46   13.3   25.6   8.48  .0730    118    1    100.0    5 
24/05/18  10:40   15.7   15.7   15.6    88   13.7  10.0     N   0.83  16.0   NNE   14.0   15.8   14.1  1018.2  0.00  0.00   0.009   0.000   25.8    46   13.3   25.6   8.48  .0730    117    1    100.0    5 
24/05/18  10:45   15.8   15.8   15.7    87   13.6   9.0   NNE   0.75  15.0   NNE   14.6   15.9   14.7  1018.3  0.00  0.00   0.009   0.000   25.8    46   13.3   25.6   8.48  .0730    116    1    100.0    5 
24/05/18  10:50   15.9   15.9   15.8    87   13.7   8.0   NNE   0.67  14.0   NNE   15.1   16.0   15.2  1018.3  0.00  0.00   0.008   0.000   25.8    46   13.3   25.7   8.48  .0730    116    1    100.0    5 
24/05/18  10:55   16.0   16.0   15.9    87   13.8   9.0     N   0.75  16.0     N   14.8   16.2   15.0  1018.3  0.00  0.00   0.008   0.000   25.9    46   13.4   25.8   8.48  .0730    116    1    100.0    5 
24/05/18  11:00   16.1   16.1   16.0    86   13.7  10.0   NNE   0.83  16.0     N   14.4   16.2   14.6  1018.3  0.00  0.00   0.008   0.000   25.9    46   13.4   25.8   8.48  .0730    116    1    100.0    5 
24/05/18  11:05   16.2   16.2   16.1    86   13.8   9.0     N   0.75  16.0   NNE   15.0   16.3   15.1  1018.3  0.00  0.00   0.008   0.000   25.9    46   13.4   25.8   8.48  .0730    115    1    100.0    5 
24/05/18  11:10   16.3   16.3   16.2    86   14.0   7.0   NNE   0.58  12.0   NNE   16.1   16.5   16.2  1018.4  0.00  0.00   0.007   0.000   25.9    46   13.4   25.8   8.48  .0730    116    1    100.0    5 
24/05/18  11:15   16.4   16.5   16.3    86   14.1   7.0   NNE   0.58  11.0   NNE   16.2   16.6   16.4  1018.4  0.00  0.00   0.007   0.000   25.9    46   13.4   25.8   8.48  .0730    115    1    100.0    5 
24/05/18  11:20   16.6   16.6   16.5    85   14.1  10.0   NNE   0.83  16.0   NNE   15.1   16.8   15.3  1018.4  0.00  0.00   0.006   0.000   26.0    46   13.5   25.9   8.47  .0729    117    1    100.0    5 
24/05/18  11:25   16.7   16.7   16.6    85   14.1   9.0     N   0.75  16.0    NE   15.6   16.8   15.7  1018.3  0.00  0.00   0.006   0.000   26.0    46   13.5   25.9   8.47  .0729    116    1    100.0    5 
24/05/18  11:30   16.8   16.8   16.7    84   14.1   9.0   NNE   0.75  15.0   NNE   15.7   16.9   15.8  1018.4  0.00  0.00   0.005   0.000   26.1    46   13.5   25.9   8.47  .0729    117    1    100.0    5 
24/05/18  11:35   16.9   16.9   16.8    84   14.2   7.0   NNE   0.58  11.0   NNE   16.8   17.1   17.0  1018.4  0.00  0.00   0.005   0.000   26.1    46   13.5   25.9   8.47  .0729    116    1    100.0    5 
24/05/18  11:40   17.1   17.1   16.9    84   14.3   9.0   NNE   0.75  15.0   NNE   16.0   17.3   16.2  1018.4  0.00  0.00   0.004   0.000   26.1    46   13.5   25.9   8.47  .0729    118    1    100.0    5 
24/05/18  11:45   17.0   17.1   17.0    83   14.1  10.0   NNE   0.83  15.0   NNE   15.6   17.2   15.8  1018.4  0.00  0.00   0.005   0.000   26.1    46   13.6   26.0   8.47  .0729    116    1    100.0    5 
24/05/18  11:50   17.1   17.1   17.0    83   14.1   8.0   NNE   0.67  14.0   NNE   16.5   17.3   16.7  1018.3  0.00  0.00   0.004   0.000   26.1    46   13.6   26.0   8.47  .0729    117    1    100.0    5 
24/05/18  11:55   17.2   17.2   17.1    83   14.3  10.0   NNE   0.83  15.0     N   15.8   17.4   16.0  1018.2  0.00  0.00   0.004   0.000   26.2    46   13.6   26.1   8.47  .0729    117    1    100.0    5 
24/05/18  12:00   17.2   17.2   17.2    83   14.3  10.0   NNE   0.83  16.0   NNE   15.8   17.4   16.0  1018.3  0.00  0.00   0.004   0.000   26.2    46   13.6   26.1   8.47  .0729    116    1    100.0    5 
24/05/18  12:05   17.1   17.2   17.1    83   14.2   9.0   NNE   0.75  14.0   NNE   16.1   17.3   16.3  1018.3  0.00  0.00   0.004   0.000   26.2    46   13.6   26.1   8.47  .0729    117    1    100.0    5 
24/05/18  12:10   17.1   17.2   17.1    83   14.2   9.0   NNE   0.75  15.0   NNE   16.1   17.3   16.3  1018.2  0.00  0.00   0.004   0.000   26.2    46   13.7   26.1   8.47  .0729    116    1    100.0    5 
24/05/18  12:15   17.1   17.1   17.1    83   14.2   9.0     N   0.75  16.0     N   16.1   17.3   16.3  1018.2  0.00  0.00   0.004   0.000   26.3    45   13.4   26.1   8.36  .0729    114    1    100.0    5 
24/05/18  12:20   17.0   17.1   17.0    83   14.1  10.0   NNE   0.83  16.0   NNE   15.6   17.2   15.8  1018.2  0.00  0.00   0.005   0.000   26.3    45   13.4   26.1   8.36  .0729    117    1    100.0    5 
24/05/18  12:25   16.9   17.0   16.9    82   13.8   9.0   NNE   0.75  14.0   NNE   15.9   17.1   16.1  1018.2  0.00  0.00   0.005   0.000   26.3    45   13.4   26.1   8.36  .0729    115    1    100.0    5 
24/05/18  12:30   16.8   16.9   16.8    83   13.9  11.0   NNE   0.92  16.0   NNE   15.0   17.0   15.2  1018.2  0.00  0.00   0.005   0.000   26.3    45   13.4   26.1   8.36  .0729    117    1    100.0    5 
24/05/18  12:35   16.7   16.8   16.7    83   13.8   9.0   NNE   0.75  14.0    NE   15.6   16.8   15.7  1018.1  0.00  0.00   0.006   0.000   26.2    46   13.7   26.1   8.47  .0729    117    1    100.0    5 
24/05/18  12:40   16.6   16.7   16.6    83   13.7   8.0   NNE   0.67  14.0     N   15.9   16.7   16.1  1018.2  0.00  0.00   0.006   0.000   26.2    45   13.3   26.1   8.37  .0729    118    1    100.0    5 
24/05/18  12:45   16.5   16.6   16.5    84   13.8  10.0   NNE   0.83  15.0   NNE   14.9   16.6   15.1  1018.2  0.00  0.00   0.006   0.000   26.2    45   13.3   26.1   8.37  .0729    117    1    100.0    5 
24/05/18  12:50   16.4   16.5   16.4    84   13.7  10.0   NNE   0.83  16.0   NNE   14.9   16.6   15.0  1018.2  0.00  0.00   0.007   0.000   26.2    45   13.3   26.1   8.37  .0729    114    1    100.0    5 
24/05/18  12:55   16.3   16.4   16.3    84   13.6  11.0   NNE   0.92  16.0   NNE   14.3   16.4   14.4  1018.2  0.00  0.00   0.007   0.000   26.2    46   13.7   26.1   8.47  .0729    117    1    100.0    5 
24/05/18  13:00   16.2   16.3   16.2    85   13.6  10.0   NNE   0.83  15.0     N   14.6   16.3   14.7  1018.3  0.00  0.00   0.008   0.000   26.2    46   13.7   26.1   8.47  .0729    117    1    100.0    5 
24/05/18  13:05   16.1   16.2   16.1    86   13.8   8.0     N   0.67  13.0     N   15.4   16.2   15.5  1018.2  0.00  0.00   0.008   0.000   26.2    46   13.7   26.1   8.47  .0729    117    1    100.0    5 
24/05/18  13:10   16.1   16.1   16.1    86   13.7   8.0   NNE   0.67  15.0   NNE   15.3   16.2   15.4  1018.2  0.00  0.00   0.008   0.000   26.2    46   13.7   26.1   8.47  .0729    117    1    100.0    5 
24/05/18  13:15   16.1   16.1   16.1    87   13.9   6.0   NNE   0.50  14.0   NNE   16.0   16.3   16.2  1018.2  0.01  0.00   0.008   0.000   26.2    45   13.3   26.1   8.37  .0729    116    1    100.0    5 
24/05/18  13:20   16.0   16.1   16.0    87   13.8   7.0   NNE   0.58  13.0   NNW   15.7   16.2   15.8  1018.1  0.00  0.00   0.008   0.000   26.2    45   13.3   26.1   8.37  .0729    116    1    100.0    5 
24/05/18  13:25   15.9   16.0   15.9    88   14.0   8.0   NNE   0.67  14.0     N   15.2   16.1   15.3  1018.0  0.00  0.00   0.008   0.000   26.2    45   13.3   26.1   8.37  .0729    116    1    100.0    5 
24/05/18  13:30   15.8   15.9   15.8    88   13.8   6.0     N   0.50  11.0     N   15.7   16.0   15.8  1017.9  0.00  0.00   0.009   0.000   26.2    46   13.7   26.1   8.47  .0728    115    1    100.0    5 
24/05/18  13:35   15.8   15.8   15.8    88   13.8   7.0     N   0.58  12.0     N   15.4   15.9   15.6  1017.9  0.00  0.00   0.009   0.000   26.2    46   13.7   26.1   8.47  .0728    117    1    100.0    5 
24/05/18  13:40   15.7   15.8   15.7    89   13.9   6.0     N   0.50  11.0   NNE   15.6   15.9   15.7  1017.9  0.00  0.00   0.009   0.000   26.2    46   13.6   26.1   8.47  .0729    114    1    100.0    5 
24/05/18  13:45   15.7   15.7   15.7    89   13.9   7.0     N   0.58  11.0     N   15.3   15.9   15.5  1017.8  0.01  0.00   0.009   0.000   26.2    46   13.6   26.1   8.47  .0729    115    1    100.0    5 
24/05/18  13:50   15.7   15.7   15.7    89   13.9   6.0     N   0.50  11.0   NNE   15.6   15.9   15.7  1017.9  0.00  0.00   0.009   0.000   26.1    46   13.6   26.0   8.47  .0729    115    1    100.0    5 
24/05/18  13:55   15.7   15.7   15.7    89   13.9   6.0     N   0.50  11.0     N   15.4   15.8   15.6  1017.9  0.00  0.00   0.009   0.000   26.1    46   13.6   26.0   8.47  .0729    117    1    100.0    5 
24/05/18  14:00   15.7   15.7   15.7    90   14.0   6.0     N   0.50  11.0   NNE   15.4   15.8   15.6  1017.9  0.01  0.04   0.009   0.000   26.1    46   13.6   26.0   8.47  .0729    117    1    100.0    5 
24/05/18  14:05   15.7   15.7   15.7    90   14.0   5.0     N   0.42  11.0     N   15.7   15.8   15.8  1017.9  0.00  0.04   0.009   0.000   26.1    46   13.6   26.0   8.47  .0729    117    1    100.0    5 
24/05/18  14:10   15.7   15.7   15.7    90   14.0   6.0     N   0.50  12.0     N   15.4   15.8   15.6  1017.7  0.01  0.09   0.009   0.000   26.1    46   13.6   26.0   8.47  .0729    117    1    100.0    5 
24/05/18  14:15   15.7   15.7   15.7    90   14.0   6.0   NNE   0.50  10.0   NNE   15.4   15.8   15.6  1017.7  0.00  0.07   0.009   0.000   26.1    46   13.6   26.0   8.47  .0729    116    1    100.0    5 
24/05/18  14:20   15.7   15.7   15.7    91   14.2   6.0     N   0.50  12.0     N   15.4   15.8   15.6  1017.7  0.01  0.07   0.009   0.000   26.1    46   13.6   26.0   8.47  .0729    117    1    100.0    5 
24/05/18  14:25   15.7   15.7   15.7    91   14.2   6.0     N   0.50  10.0     N   15.4   15.8   15.6  1017.7  0.00  0.05   0.009   0.000   26.1    46   13.5   25.9   8.47  .0729    116    1    100.0    5 
24/05/18  14:30   15.6   15.7   15.6    91   14.1   4.0     N   0.33   9.0   NNW   15.6   15.8   15.8  1017.7  0.01  0.07   0.009   0.000   26.1    46   13.5   25.9   8.47  .0729    116    1    100.0    5 
24/05/18  14:35   15.6   15.7   15.6    91   14.1   6.0     N   0.50  10.0     N   15.4   15.8   15.6  1017.8  0.00  0.07   0.009   0.000   26.1    46   13.5   25.9   8.47  .0729    116    1    100.0    5 
24/05/18  14:40   15.6   15.6   15.6    91   14.1   7.0     N   0.58   9.0     N   15.1   15.7   15.3  1017.8  0.00  0.04   0.010   0.000   26.1    46   13.5   25.9   8.47  .0729    117    1    100.0    5 
24/05/18  14:45   15.6   15.6   15.6    91   14.1   6.0     N   0.50   9.0     N   15.3   15.7   15.5  1017.7  0.01  0.04   0.010   0.000   26.1    46   13.5   25.9   8.47  .0729    116    1    100.0    5 
24/05/18  14:50   15.5   15.6   15.5    91   14.0   6.0   NNE   0.50  11.0     N   15.3   15.7   15.4  1017.7  0.01  0.09   0.010   0.000   26.1    46   13.5   25.9   8.47  .0729    118    1    100.0    5 
24/05/18  14:55   15.4   15.5   15.4    91   14.0   7.0     N   0.58  11.0   NNE   15.0   15.6   15.2  1017.7  0.01  0.09   0.010   0.000   26.1    46   13.5   25.9   8.47  .0729    116    1    100.0    5 
24/05/18  15:00   15.4   15.4   15.4    91   14.0   5.0     N   0.42   9.0     N   15.4   15.6   15.6  1017.6  0.01  0.18   0.010   0.000   26.0    46   13.5   25.9   8.47  .0729    117    1    100.0    5 
24/05/18  15:05   15.4   15.4   15.4    92   14.1   6.0   NNE   0.50  10.0     N   15.1   15.6   15.3  1017.7  0.00  0.09   0.010   0.000   26.0    46   13.5   25.9   8.47  .0729    116    1    100.0    5 
24/05/18  15:10   15.3   15.4   15.3    92   14.0   5.0     N   0.42   8.0     N   15.3   15.5   15.4  1017.7  0.02  0.23   0.010   0.000   26.0    46   13.5   25.9   8.47  .0729    117    1    100.0    5 
24/05/18  15:15   15.3   15.3   15.3    92   14.0   6.0     N   0.50   9.0   NNE   15.1   15.5   15.2  1017.7  0.01  0.23   0.010   0.000   26.0    46   13.5   25.9   8.47  .0729    116    1    100.0    5 
24/05/18  15:20   15.3   15.3   15.3    92   14.0   7.0     N   0.58  11.0   NNE   14.8   15.4   14.9  1017.4  0.03  1.08   0.011   0.000   25.9    46   13.4   25.8   8.48  .0729    116    1    100.0    5 
24/05/18  15:25   15.3   15.3   15.3    92   14.0   6.0     N   0.50  10.0   NNW   15.0   15.4   15.2  1017.5  0.02  0.27   0.011   0.000   25.9    46   13.4   25.8   8.48  .0729    117    1    100.0    5 
24/05/18  15:30   15.3   15.3   15.3    92   14.0   4.0     N   0.33   7.0     N   15.3   15.4   15.4  1017.4  0.00  0.11   0.011   0.000   25.9    46   13.4   25.8   8.48  .0729    117    1    100.0    5 
24/05/18  15:35   15.3   15.3   15.2    92   14.0   5.0     N   0.42   9.0     N   15.2   15.4   15.4  1017.4  0.00  0.06   0.011   0.000   25.9    46   13.4   25.8   8.48  .0729    116    1    100.0    5 
24/05/18  15:40   15.3   15.3   15.3    92   14.0   6.0     N   0.50  10.0     N   15.0   15.4   15.2  1017.4  0.01  0.06   0.011   0.000   25.9    46   13.4   25.8   8.48  .0729    116    1    100.0    5 
24/05/18  15:45   15.3   15.3   15.3    92   14.0   6.0     N   0.50   9.0     N   15.1   15.5   15.2  1017.4  0.00  0.05   0.010   0.000   25.9    46   13.4   25.8   8.48  .0729    115    1    100.0    5 
24/05/18  15:50   15.3   15.3   15.3    92   14.0   5.0     N   0.42   8.0     N   15.3   15.5   15.4  1017.3  0.01  0.07   0.010   0.000   25.9    46   13.4   25.8   8.48  .0729    118    1    100.0    5 
24/05/18  15:55   15.3   15.3   15.3    92   14.0   6.0     N   0.50  11.0     N   15.1   15.5   15.2  1017.3  0.00  0.07   0.010   0.000   25.9    46   13.4   25.8   8.48  .0729    117    1    100.0    5 
24/05/18  16:00   15.3   15.3   15.3    92   14.0   6.0     N   0.50  11.0     N   15.0   15.4   15.2  1017.2  0.00  0.05   0.011   0.000   25.9    46   13.4   25.8   8.48  .0729    117    1    100.0    5 
24/05/18  16:05   15.3   15.3   15.3    92   14.0   7.0     N   0.58  12.0   NNE   14.8   15.4   14.9  1017.2  0.01  0.05   0.011   0.000   25.9    46   13.4   25.8   8.48  .0729    117    1    100.0    5 
24/05/18  16:10   15.3   15.3   15.3    93   14.2   6.0     N   0.50   9.0     N   15.0   15.4   15.2  1017.1  0.00  0.04   0.011   0.000   25.9    46   13.4   25.8   8.48  .0729    116    1    100.0    5 
24/05/18  16:15   15.3   15.3   15.3    93   14.2   6.0     N   0.50  11.0     N   15.1   15.5   15.2  1017.1  0.01  0.06   0.010   0.000   25.9    46   13.4   25.8   8.48  .0729    117    1    100.0    5 
24/05/18  16:20   15.3   15.3   15.3    93   14.2   5.0     N   0.42   9.0     N   15.3   15.5   15.4  1017.0  0.00  0.06   0.010   0.000   25.8    46   13.3   25.7   8.48  .0729    116    1    100.0    5 
24/05/18  16:25   15.4   15.4   15.3    93   14.3   6.0     N   0.50  11.0   NNW   15.1   15.6   15.3  1016.9  0.01  0.06   0.010   0.000   25.8    46   13.3   25.7   8.48  .0729    117    1    100.0    5 
24/05/18  16:30   15.4   15.4   15.4    93   14.3   7.0     N   0.58  12.0     N   15.0   15.7   15.2  1016.8  0.00  0.05   0.010   0.000   25.8    46   13.3   25.7   8.48  .0729    116    1    100.0    5 
24/05/18  16:35   15.5   15.5   15.4    93   14.4   7.0   NNW   0.58  12.0   NNW   15.1   15.7   15.3  1016.7  0.00  0.05   0.010   0.000   25.8    46   13.3   25.7   8.48  .0729    115    1    100.0    5 
24/05/18  16:40   15.6   15.6   15.5    93   14.4   7.0   NNW   0.58  12.0    NW   15.1   15.8   15.3  1016.7  0.00  0.04   0.010   0.000   25.9    46   13.4   25.8   8.48  .0729    117    1    100.0    5 
24/05/18  16:45   15.7   15.7   15.6    93   14.5   6.0     N   0.50  10.0     N   15.4   15.9   15.7  1016.6  0.00  0.00   0.009   0.000   25.8    46   13.3   25.7   8.48  .0729    116    1    100.0    5 
24/05/18  16:50   15.8   15.8   15.7    93   14.6   6.0   NNW   0.50  11.0   NNE   15.6   16.0   15.8  1016.6  0.00  0.00   0.009   0.000   25.8    46   13.3   25.7   8.48  .0729    117    1    100.0    5 
24/05/18  16:55   15.9   15.9   15.8    93   14.8   6.0   NNW   0.50  11.0   NNW   15.7   16.1   15.9  1016.7  0.00  0.00   0.008   0.000   25.9    46   13.4   25.8   8.48  .0729    118    1    100.0    5 
24/05/18  17:00   16.0   16.0   15.9    93   14.9   6.0     N   0.50  11.0     N   15.9   16.2   16.1  1016.6  0.00  0.00   0.008   0.000   25.9    46   13.4   25.8   8.48  .0729    114    1    100.0    5 
24/05/18  17:05   16.1   16.1   16.0    93   14.9   6.0     N   0.50  11.0     N   15.9   16.3   16.2  1016.6  0.00  0.00   0.008   0.000   25.9    46   13.4   25.8   8.48  .0728    117    1    100.0    5 
24/05/18  17:10   16.3   16.3   16.1    93   15.1   5.0     N   0.42  10.0     N   16.3   16.6   16.6  1016.6  0.00  0.00   0.007   0.000   25.9    46   13.4   25.8   8.48  .0728    115    1    100.0    5 
24/05/18  17:15   16.3   16.3   16.3    93   15.2   6.0     N   0.50  11.0   NNE   16.3   16.6   16.6  1016.6  0.00  0.00   0.007   0.000   26.0    46   13.5   25.9   8.47  .0728    117    1    100.0    5 
24/05/18  17:20   16.4   16.4   16.3    93   15.3   5.0     N   0.42  11.0     N   16.4   16.7   16.7  1016.6  0.00  0.00   0.007   0.000   26.0    46   13.5   25.9   8.47  .0728    117    1    100.0    5 
24/05/18  17:25   16.4   16.4   16.4    93   15.3   5.0     N   0.42  12.0   NNW   16.4   16.7   16.7  1016.6  0.00  0.00   0.007   0.000   26.0    46   13.5   25.9   8.47  .0728    117    1    100.0    5 
24/05/18  17:30   16.3   16.4   16.3    93   15.2   6.0     N   0.50  12.0   NNW   16.3   16.6   16.6  1016.5  0.00  0.00   0.007   0.000   26.0    46   13.5   25.9   8.47  .0728    117    1    100.0    5 
24/05/18  17:35   16.3   16.3   16.3    93   15.1   5.0   NNW   0.42   8.0     N   16.3   16.6   16.6  1016.5  0.00  0.00   0.007   0.000   26.0    46   13.5   25.9   8.47  .0728    117    1    100.0    5 
24/05/18  17:40   16.3   16.3   16.3    93   15.1   5.0   NNW   0.42  12.0   NNW   16.3   16.6   16.6  1016.5  0.00  0.00   0.007   0.000   26.0    46   13.5   25.9   8.47  .0728    117    1    100.0    5 
24/05/18  17:45   16.3   16.3   16.3    93   15.1   7.0     N   0.58  11.0   NNW   16.0   16.6   16.3  1016.4  0.00  0.00   0.007   0.000   26.0    46   13.5   25.9   8.47  .0728    116    1    100.0    5 
24/05/18  17:50   16.2   16.2   16.2    93   15.1   6.0     N   0.50  13.0   NNW   16.1   16.5   16.4  1016.4  0.00  0.00   0.007   0.000   26.0    46   13.5   25.9   8.47  .0728    117    1    100.0    5 
24/05/18  17:55   16.3   16.3   16.2    93   15.1   5.0     N   0.42  11.0     N   16.3   16.6   16.6  1016.5  0.00  0.00   0.007   0.000   26.1    46   13.5   25.9   8.47  .0728    116    1    100.0    5 
24/05/18  18:00   16.3   16.3   16.3    93   15.2   7.0     N   0.58  12.0   NNE   16.1   16.6   16.3  1016.5  0.00  0.00   0.007   0.000   26.0    46   13.5   25.9   8.47  .0728    117    1    100.0    5 
24/05/18  18:05   16.3   16.3   16.3    93   15.2   6.0     N   0.50  11.0   NNW   16.3   16.6   16.6  1016.4  0.00  0.00   0.007   0.000   26.0    46   13.5   25.9   8.47  .0728    115    1    100.0    5 
24/05/18  18:10   16.4   16.4   16.3    93   15.3   6.0     N   0.50   9.0     N   16.3   16.7   16.6  1016.4  0.00  0.00   0.007   0.000   26.1    46   13.5   25.9   8.47  .0728    117    1    100.0    5 
24/05/18  18:15   16.4   16.4   16.4    93   15.3   4.0     N   0.33   8.0   NNW   16.4   16.8   16.8  1016.5  0.00  0.00   0.007   0.000   26.1    46   13.5   25.9   8.47  .0728    115    1    100.0    5 
24/05/18  18:20   16.6   16.6   16.4    93   15.4   6.0     N   0.50  10.0   NNW   16.6   16.9   16.9  1016.5  0.00  0.00   0.006   0.000   26.1    46   13.5   25.9   8.47  .0728    117    1    100.0    5 
24/05/18  18:25   16.7   16.7   16.6    93   15.6   4.0     N   0.33   7.0     N   16.7   17.1   17.1  1016.5  0.00  0.00   0.006   0.000   26.1    46   13.6   26.0   8.47  .0728    117    1    100.0    5 
24/05/18  18:30   16.7   16.8   16.7    92   15.4   5.0     N   0.42   9.0     N   16.7   17.1   17.1  1016.5  0.00  0.00   0.006   0.000   26.1    46   13.6   26.0   8.47  .0728    115    1    100.0    5 
24/05/18  18:35   16.6   16.7   16.6    92   15.3   5.0   NNE   0.42  10.0     N   16.6   16.9   16.9  1016.4  0.00  0.00   0.006   0.000   26.1    46   13.6   26.0   8.47  .0728    117    1    100.0    5 
24/05/18  18:40   16.5   16.6   16.5    92   15.2   6.0     N   0.50  10.0     N   16.4   16.8   16.7  1016.4  0.00  0.00   0.006   0.000   26.1    46   13.6   26.0   8.47  .0728    116    1    100.0    5 
24/05/18  18:45   16.4   16.5   16.4    92   15.1   6.0     N   0.50  10.0   NNE   16.4   16.7   16.7  1016.3  0.00  0.00   0.007   0.000   26.1    46   13.6   26.0   8.47  .0728    116    1    100.0    5 
24/05/18  18:50   16.2   16.4   16.2    92   14.9   9.0   NNE   0.75  13.0   NNE   15.1   16.5   15.3  1016.4  0.00  0.00   0.007   0.000   26.1    46   13.5   25.9   8.47  .0728    115    1    100.0    5 
24/05/18  18:55   16.2   16.2   16.2    92   14.9   7.0   NNE   0.58  12.0   NNE   15.8   16.4   16.1  1016.4  0.00  0.00   0.008   0.000   26.1    46   13.5   25.9   8.47  .0728    117    1    100.0    5 
24/05/18  19:00   16.2   16.2   16.2    92   14.9   6.0   NNE   0.50  11.0   NNE   16.1   16.4   16.3  1016.4  0.00  0.00   0.008   0.000   26.1    46   13.5   25.9   8.47  .0728    115    1    100.0    5 
24/05/18  19:05   16.2   16.2   16.2    92   14.9   6.0   NNE   0.50  12.0   NNE   16.1   16.4   16.3  1016.4  0.00  0.00   0.008   0.000   26.1    46   13.5   25.9   8.47  .0728    116    1    100.0    5 
24/05/18  19:10   16.1   16.2   16.1    92   14.8   9.0   NNE   0.75  13.0   NNE   14.9   16.3   15.2  1016.4  0.00  0.00   0.008   0.000   26.1    46   13.5   25.9   8.47  .0728    117    1    100.0    5 
24/05/18  19:15   16.1   16.1   16.1    92   14.8   6.0   NNE   0.50  11.0   NNE   15.9   16.3   16.2  1016.4  0.00  0.00   0.008   0.000   26.1    46   13.5   25.9   8.47  .0728    117    1    100.0    5 
24/05/18  19:20   16.1   16.1   16.1    92   14.8   5.0   NNE   0.42  10.0   NNE   16.1   16.3   16.3  1016.5  0.00  0.00   0.008   0.000   26.1    46   13.5   25.9   8.47  .0728    116    1    100.0    5 
24/05/18  19:25   16.1   16.1   16.0    92   14.8   6.0   NNE   0.50  10.0   NNE   15.9   16.3   16.2  1016.4  0.00  0.00   0.008   0.000   26.1    46   13.5   25.9   8.47  .0728    117    1    100.0    5 
24/05/18  19:30   16.0   16.1   16.0    92   14.7   5.0   NNE   0.42   9.0   NNE   16.0   16.2   16.2  1016.4  0.00  0.00   0.008   0.000   26.0    46   13.5   25.9   8.47  .0728    116    1    100.0    5 
24/05/18  19:35   15.9   16.0   15.9    92   14.6   7.0   NNE   0.58  11.0   NNE   15.6   16.2   15.8  1016.4  0.00  0.00   0.008   0.000   26.0    46   13.5   25.9   8.47  .0728    116    1    100.0    5 
24/05/18  19:40   15.9   16.0   15.9    92   14.6   5.0   NNE   0.42   9.0   NNE   15.9   16.1   16.1  1016.4  0.00  0.00   0.008   0.000   26.0    46   13.5   25.9   8.47  .0728    115    1    100.0    5 
24/05/18  19:45   15.9   15.9   15.9    92   14.6   3.0   NNE   0.25   6.0   NNE   15.9   16.1   16.1  1016.5  0.00  0.00   0.008   0.000   26.0    46   13.5   25.9   8.47  .0728    115    1    100.0    5 
24/05/18  19:50   15.8   15.9   15.8    92   14.5   3.0   NNE   0.25  10.0     N   15.8   16.1   16.1  1016.5  0.00  0.00   0.009   0.000   25.9    46   13.4   25.8   8.48  .0728    117    1    100.0    5 
24/05/18  19:55   15.8   15.9   15.8    92   14.5   4.0     N   0.33   7.0     N   15.8   16.1   16.1  1016.5  0.00  0.00   0.009   0.000   25.9    46   13.4   25.8   8.48  .0728    116    1    100.0    5 
24/05/18  20:00   15.8   15.8   15.8    92   14.5   3.0   NNE   0.25   7.0   NNE   15.8   16.1   16.1  1016.5  0.00  0.00   0.009   0.000   25.9    46   13.4   25.8   8.48  .0728    116    1    100.0    5 
24/05/18  20:05   15.8   15.8   15.8    92   14.5   4.0     N   0.33   8.0     N   15.8   16.1   16.1  1016.5  0.00  0.00   0.009   0.000   25.9    47   13.8   25.9   8.68  .0728    117    1    100.0    5 
24/05/18  20:10   15.8   15.8   15.8    92   14.5   3.0     N   0.25   6.0     N   15.8   16.0   16.0  1016.5  0.00  0.00   0.009   0.000   25.9    47   13.8   25.9   8.68  .0728    117    1    100.0    5 
24/05/18  20:15   15.8   15.8   15.8    92   14.5   4.0     N   0.33   8.0     N   15.8   16.0   16.0  1016.5  0.00  0.00   0.009   0.000   25.9    47   13.7   25.8   8.68  .0728    117    1    100.0    5 
24/05/18  20:20   15.7   15.8   15.7    92   14.4   3.0     N   0.25   6.0     N   15.7   15.9   15.9  1016.6  0.00  0.00   0.009   0.000   25.9    47   13.7   25.8   8.68  .0728    117    1    100.0    5 
24/05/18  20:25   15.7   15.7   15.7    92   14.4   3.0     N   0.25   6.0     N   15.7   15.9   15.9  1016.7  0.00  0.00   0.009   0.000   25.9    47   13.7   25.8   8.68  .0728    117    1    100.0    5 
24/05/18  20:30   15.7   15.7   15.7    92   14.4   2.0     N   0.17   5.0     N   15.7   15.9   15.9  1016.7  0.00  0.00   0.009   0.000   25.9    47   13.7   25.8   8.68  .0728    116    1    100.0    5 
24/05/18  20:35   15.6   15.7   15.6    92   14.3   1.0     N   0.08   4.0     N   15.6   15.8   15.8  1016.7  0.00  0.00   0.009   0.000   25.8    47   13.7   25.7   8.68  .0729    117    1    100.0    5 
24/05/18  20:40   15.6   15.6   15.6    91   14.1   1.0     N   0.08   5.0     N   15.6   15.7   15.7  1016.7  0.00  0.00   0.010   0.000   25.8    47   13.7   25.7   8.68  .0729    117    1    100.0    5 
24/05/18  20:45   15.5   15.6   15.5    91   14.0   1.0     N   0.08   4.0     N   15.5   15.7   15.7  1016.7  0.00  0.00   0.010   0.000   25.8    47   13.7   25.7   8.68  .0729    117    1    100.0    5 
24/05/18  20:50   15.4   15.5   15.4    91   14.0   0.0     N   0.00   1.0     N   15.4   15.6   15.6  1016.7  0.00  0.00   0.010   0.000   25.8    47   13.6   25.7   8.68  .0729    117    1    100.0    5 
24/05/18  20:55   15.4   15.4   15.4    91   14.0   0.0     N   0.00   2.0     N   15.4   15.6   15.6  1016.8  0.00  0.00   0.010   0.000   25.8    47   13.6   25.7   8.68  .0729    117    1    100.0    5 
24/05/18  21:00   15.4   15.4   15.4    92   14.1   1.0     N   0.08   4.0     N   15.4   15.6   15.6  1016.8  0.00  0.00   0.010   0.000   25.8    47   13.6   25.7   8.68  .0729    116    1    100.0    5 
24/05/18  21:05   15.3   15.4   15.3    92   14.0   0.0     N   0.00   2.0     N   15.3   15.5   15.5  1016.8  0.00  0.00   0.010   0.000   25.8    47   13.6   25.7   8.68  .0729    115    1    100.0    5 
24/05/18  21:10   15.3   15.3   15.3    92   14.0   0.0     N   0.00   1.0     N   15.3   15.4   15.4  1016.8  0.00  0.00   0.011   0.000   25.8    47   13.6   25.7   8.68  .0729    118    1    100.0    5 
24/05/18  21:15   15.3   15.3   15.3    92   14.0   0.0   ---   0.00   0.0   ---   15.3   15.4   15.4  1016.8  0.00  0.00   0.011   0.000   25.8    47   13.6   25.7   8.68  .0729    117    1    100.0    5 
24/05/18  21:20   15.2   15.3   15.2    92   13.9   0.0     N   0.00   2.0     N   15.2   15.4   15.4  1016.8  0.00  0.00   0.011   0.000   25.7    47   13.6   25.6   8.68  .0729    116    1    100.0    5 
24/05/18  21:25   15.2   15.2   15.2    92   13.9   0.0     N   0.00   2.0     N   15.2   15.4   15.4  1016.8  0.00  0.00   0.011   0.000   25.7    47   13.6   25.6   8.68  .0729    116    1    100.0    5 
24/05/18  21:30   15.2   15.2   15.2    92   13.9   0.0   ---   0.00   0.0   ---   15.2   15.4   15.4  1016.9  0.00  0.00   0.011   0.000   25.7    47   13.5   25.6   8.69  .0729    116    1    100.0    5 
24/05/18  21:35   15.2   15.2   15.2    92   13.9   1.0     N   0.08   3.0     N   15.2   15.4   15.4  1016.9  0.00  0.00   0.011   0.000   25.7    47   13.5   25.6   8.69  .0729    117    1    100.0    5 
24/05/18  21:40   15.2   15.2   15.2    92   13.9   1.0     N   0.08   4.0     N   15.2   15.4   15.4  1017.0  0.00  0.00   0.011   0.000   25.7    47   13.5   25.6   8.69  .0729    117    1    100.0    5 
24/05/18  21:45   15.2   15.2   15.2    91   13.7   0.0     N   0.00   2.0     N   15.2   15.3   15.3  1017.0  0.00  0.00   0.011   0.000   25.6    47   13.5   25.5   8.69  .0729    117    1    100.0    5 
24/05/18  21:50   15.2   15.2   15.2    91   13.7   0.0     N   0.00   1.0     N   15.2   15.3   15.3  1017.0  0.00  0.00   0.011   0.000   25.6    47   13.5   25.5   8.69  .0729    117    1    100.0    5 
24/05/18  21:55   15.2   15.2   15.2    91   13.7   0.0     N   0.00   3.0     N   15.2   15.3   15.3  1017.0  0.00  0.00   0.011   0.000   25.6    47   13.5   25.5   8.69  .0729    116    1    100.0    5 
24/05/18  22:00   15.2   15.2   15.2    91   13.7   1.0     N   0.08   3.0     N   15.2   15.3   15.3  1016.9  0.00  0.00   0.011   0.000   25.6    47   13.4   25.4   8.69  .0730    116    1    100.0    5 
24/05/18  22:05   15.1   15.2   15.1    91   13.7   0.0     N   0.00   2.0     N   15.1   15.3   15.3  1016.9  0.00  0.00   0.011   0.000   25.6    47   13.4   25.4   8.69  .0730    116    1    100.0    5 
24/05/18  22:10   15.1   15.1   15.1    91   13.6   0.0     N   0.00   1.0     N   15.1   15.2   15.2  1016.9  0.00  0.00   0.011   0.000   25.6    47   13.4   25.4   8.69  .0730    118    1    100.0    5 
24/05/18  22:15   15.0   15.1   15.0    91   13.5   2.0     N   0.17   4.0     N   15.0   15.1   15.1  1016.9  0.00  0.00   0.012   0.000   25.5    47   13.4   25.3   8.69  .0730    117    1    100.0    5 
24/05/18  22:20   14.9   15.0   14.9    92   13.7   2.0     N   0.17   3.0     N   14.9   15.1   15.1  1016.9  0.00  0.00   0.012   0.000   25.6    47   13.4   25.4   8.69  .0730    117    1    100.0    5 
24/05/18  22:25   14.9   14.9   14.9    92   13.6   1.0     N   0.08   3.0     N   14.9   15.1   15.1  1016.9  0.00  0.00   0.012   0.000   25.5    47   13.4   25.3   8.69  .0730    117    1    100.0    5 
24/05/18  22:30   14.8   14.9   14.8    92   13.5   0.0     N   0.00   2.0     N   14.8   15.0   15.0  1016.9  0.00  0.00   0.012   0.000   25.5    47   13.4   25.3   8.69  .0730    116    1    100.0    5 
24/05/18  22:35   14.8   14.8   14.8    92   13.5   0.0     N   0.00   1.0     N   14.8   15.0   15.0  1016.8  0.00  0.00   0.012   0.000   25.5    47   13.4   25.3   8.69  .0730    116    1    100.0    5 
24/05/18  22:40   14.8   14.8   14.8    92   13.5   0.0     N   0.00   3.0     N   14.8   15.0   15.0  1016.9  0.00  0.00   0.012   0.000   25.4    47   13.3   25.3   8.69  .0730    117    1    100.0    5 
24/05/18  22:45   14.8   14.8   14.8    92   13.5   0.0     N   0.00   1.0     N   14.8   14.9   14.9  1016.9  0.00  0.00   0.012   0.000   25.4    47   13.3   25.3   8.69  .0730    117    1    100.0    5 
24/05/18  22:50   14.8   14.8   14.8    92   13.5   0.0     N   0.00   1.0     N   14.8   14.9   14.9  1016.8  0.00  0.00   0.012   0.000   25.4    47   13.3   25.3   8.69  .0730    115    1    100.0    5 
24/05/18  22:55   14.8   14.8   14.8    92   13.5   0.0     N   0.00   1.0     N   14.8   14.9   14.9  1016.8  0.00  0.00   0.012   0.000   25.4    47   13.3   25.2   8.70  .0730    117    1    100.0    5 
24/05/18  23:00   14.7   14.8   14.7    92   13.4   0.0   ---   0.00   0.0   ---   14.7   14.8   14.8  1016.8  0.00  0.00   0.013   0.000   25.4    47   13.3   25.2   8.70  .0730    117    1    100.0    5 
24/05/18  23:05   14.7   14.8   14.7    92   13.4   0.0     N   0.00   2.0     N   14.7   14.8   14.8  1016.7  0.00  0.00   0.013   0.000   25.4    47   13.3   25.2   8.70  .0730    116    1    100.0    5 
24/05/18  23:10   14.7   14.7   14.7    92   13.4   0.0     N   0.00   2.0     N   14.7   14.8   14.8  1016.7  0.00  0.00   0.013   0.000   25.4    48   13.6   25.3   8.90  .0730    117    1    100.0    5 
24/05/18  23:15   14.7   14.7   14.7    92   13.4   1.0     N   0.08   3.0     N   14.7   14.8   14.8  1016.7  0.00  0.00   0.013   0.000   25.4    48   13.6   25.3   8.90  .0730    118    1    100.0    5 
24/05/18  23:20   14.7   14.7   14.7    92   13.4   2.0     N   0.17   6.0     N   14.7   14.8   14.8  1016.7  0.00  0.00   0.013   0.000   25.4    48   13.6   25.3   8.90  .0730    117    1    100.0    5 
24/05/18  23:25   14.7   14.7   14.7    92   13.4   3.0     N   0.25   6.0     N   14.7   14.8   14.8  1016.6  0.00  0.00   0.013   0.000   25.4    48   13.6   25.3   8.90  .0730    117    1    100.0    5 
24/05/18  23:30   14.7   14.7   14.7    92   13.4   3.0     N   0.25   6.0     N   14.7   14.8   14.8  1016.6  0.00  0.00   0.013   0.000   25.4    48   13.6   25.3   8.90  .0730    116    1    100.0    5 
24/05/18  23:35   14.7   14.7   14.7    92   13.4   4.0   NNW   0.33   8.0   NNW   14.7   14.8   14.8  1016.6  0.00  0.00   0.013   0.000   25.3    48   13.5   25.2   8.90  .0730    116    1    100.0    5 
24/05/18  23:40   14.7   14.7   14.7    92   13.4   5.0   NNW   0.42   8.0   NNW   14.6   14.8   14.7  1016.6  0.00  0.00   0.013   0.000   25.3    48   13.5   25.2   8.90  .0730    115    1    100.0    5 
24/05/18  23:45   14.7   14.7   14.7    92   13.4   5.0   NNW   0.42   8.0   NNW   14.6   14.8   14.7  1016.5  0.00  0.00   0.013   0.000   25.3    48   13.5   25.2   8.90  .0730    117    1    100.0    5 
24/05/18  23:50   14.7   14.7   14.7    92   13.4   4.0   NNW   0.33   8.0     N   14.7   14.8   14.8  1016.6  0.00  0.00   0.013   0.000   25.3    48   13.5   25.2   8.90  .0730    115    1    100.0    5 
24/05/18  23:55   14.7   14.7   14.7    92   13.4   4.0   NNW   0.33   7.0   NNW   14.7   14.8   14.8  1016.6  0.00  0.00   0.013   0.000   25.3    48   13.5   25.2   8.90  .0730    117    1    100.0    5 
25/05/18  00:00   14.7   14.7   14.7    93   13.5   3.0   NNW   0.25   7.0   NNW   14.7   14.8   14.8  1016.5  0.00  0.00   0.013   0.000   25.3    48   13.5   25.2   8.90  .0730    117    1    100.0    5 
25/05/18   0:05   14.7   14.7   14.7    93   13.5   1.0   NNW   0.08   4.0   NNW   14.7   14.8   14.8  1016.6  0.00  0.00   0.013   0.000   25.3    48   13.5   25.2   8.90  .0730    115    1    100.0    5 
25/05/18   0:10   14.6   14.7   14.6    93   13.5   1.0   NNW   0.08   3.0   NNW   14.6   14.7   14.7  1016.7  0.00  0.00   0.013   0.000   25.3    48   13.5   25.2   8.90  .0730    116    1    100.0    5 
25/05/18   0:15   14.6   14.6   14.6    92   13.3   2.0   NNW   0.17   4.0   NNW   14.6   14.7   14.7  1016.7  0.00  0.00   0.013   0.000   25.3    48   13.5   25.2   8.90  .0730    117    1    100.0    5 
25/05/18   0:20   14.6   14.6   14.6    92   13.3   2.0   NNW   0.17   4.0   NNW   14.6   14.7   14.7  1016.6  0.00  0.00   0.013   0.000   25.3    48   13.5   25.2   8.90  .0730    117    1    100.0    5 
25/05/18   0:25   14.6   14.6   14.5    93   13.4   1.0   NNW   0.08   3.0   NNW   14.6   14.7   14.7  1016.6  0.00  0.00   0.013   0.000   25.3    48   13.5   25.2   8.90  .0730    114    1    100.0    5 
25/05/18   0:30   14.5   14.6   14.5    93   13.4   1.0   NNW   0.08   2.0   NNW   14.5   14.6   14.6  1016.6  0.00  0.00   0.013   0.000   25.3    48   13.5   25.2   8.90  .0730    116    1    100.0    5 
25/05/18   0:35   14.5   14.5   14.5    93   13.4   0.0   NNW   0.00   2.0   NNW   14.5   14.6   14.6  1016.7  0.00  0.00   0.013   0.000   25.3    48   13.5   25.2   8.90  .0730    114    1    100.0    5 
25/05/18   0:40   14.5   14.5   14.5    93   13.4   0.0   ---   0.00   0.0   ---   14.5   14.6   14.6  1016.7  0.00  0.00   0.013   0.000   25.3    48   13.5   25.2   8.90  .0730    117    1    100.0    5 
25/05/18   0:45   14.5   14.5   14.5    93   13.4   0.0   ---   0.00   0.0   ---   14.5   14.6   14.6  1016.6  0.00  0.00   0.013   0.000   25.3    48   13.5   25.2   8.90  .0730    118    1    100.0    5 
25/05/18   0:50   14.5   14.5   14.5    93   13.4   0.0   NNW   0.00   1.0   NNW   14.5   14.6   14.6  1016.6  0.00  0.00   0.013   0.000   25.3    48   13.5   25.2   8.90  .0730    114    1    100.0    5 
25/05/18   0:55   14.4   14.5   14.4    93   13.3   0.0   ---   0.00   0.0   ---   14.4   14.6   14.6  1016.6  0.00  0.00   0.014   0.000   25.3    48   13.5   25.2   8.90  .0730    115    1    100.0    5 
25/05/18   1:00   14.4   14.4   14.4    93   13.3   0.0   ---   0.00   0.0   ---   14.4   14.5   14.5  1016.5  0.00  0.00   0.014   0.000   25.3    48   13.5   25.2   8.90  .0730    117    1    100.0    5 
25/05/18   1:05   14.4   14.4   14.4    93   13.3   0.0   ---   0.00   0.0   ---   14.4   14.5   14.5  1016.6  0.00  0.00   0.014   0.000   25.3    48   13.5   25.2   8.90  .0730    115    1    100.0    5 
25/05/18   1:10   14.3   14.4   14.3    93   13.2   0.0   ---   0.00   0.0   ---   14.3   14.4   14.4  1016.5  0.00  0.00   0.014   0.000   25.3    48   13.5   25.2   8.90  .0730    117    1    100.0    5 
25/05/18   1:15   14.3   14.3   14.3    93   13.2   0.0   ---   0.00   0.0   ---   14.3   14.4   14.4  1016.5  0.00  0.00   0.014   0.000   25.3    48   13.5   25.2   8.90  .0730    117    1    100.0    5 
25/05/18   1:20   14.3   14.3   14.3    93   13.2   0.0   ---   0.00   0.0   ---   14.3   14.4   14.4  1016.4  0.00  0.00   0.014   0.000   25.3    49   13.8   25.2   9.00  .0730    117    1    100.0    5 
25/05/18   1:25   14.2   14.3   14.2    93   13.1   0.0   NNW   0.00   3.0   NNW   14.2   14.3   14.3  1016.4  0.00  0.00   0.014   0.000   25.3    49   13.8   25.2   9.00  .0730    116    1    100.0    5 
25/05/18   1:30   14.2   14.2   14.2    93   13.1   1.0   NNW   0.08   4.0   NNW   14.2   14.3   14.3  1016.4  0.00  0.00   0.014   0.000   25.3    49   13.8   25.2   9.00  .0730    115    1    100.0    5 
25/05/18   1:35   14.2   14.2   14.2    93   13.1   2.0   NNW   0.17   4.0   NNW   14.2   14.3   14.3  1016.3  0.00  0.00   0.014   0.000   25.3    49   13.8   25.2   9.00  .0729    117    1    100.0    5 
25/05/18   1:40   14.2   14.2   14.2    93   13.1   2.0   NNW   0.17   4.0   NNW   14.2   14.3   14.3  1016.3  0.00  0.00   0.014   0.000   25.3    49   13.8   25.2   9.00  .0729    115    1    100.0    5 
25/05/18   1:45   14.2   14.2   14.2    93   13.1   2.0   NNW   0.17   5.0   NNW   14.2   14.3   14.3  1016.2  0.00  0.00   0.014   0.000   25.3    49   13.8   25.2   9.00  .0729    118    1    100.0    5 
25/05/18   1:50   14.2   14.2   14.2    93   13.1   1.0   NNW   0.08   4.0   NNW   14.2   14.3   14.3  1016.2  0.00  0.00   0.014   0.000   25.3    49   13.8   25.2   9.00  .0729    114    1    100.0    5 
25/05/18   1:55   14.1   14.2   14.1    93   13.0   1.0   NNW   0.08   4.0   NNW   14.1   14.2   14.2  1016.2  0.00  0.00   0.015   0.000   25.3    49   13.8   25.2   9.00  .0729    116    1    100.0    5 
25/05/18   2:00   14.1   14.1   14.1    93   13.0   1.0   NNW   0.08   3.0   NNW   14.1   14.2   14.2  1016.2  0.00  0.00   0.015   0.000   25.3    49   13.8   25.2   9.00  .0729    116    1    100.0    5 
25/05/18   2:05   14.1   14.1   14.1    93   12.9   0.0   NNW   0.00   2.0   NNW   14.1   14.2   14.2  1016.2  0.00  0.00   0.015   0.000   25.3    49   13.8   25.2   9.00  .0729    117    1    100.0    5 
25/05/18   2:10   14.0   14.1   14.0    93   12.9   0.0   NNW   0.00   1.0   NNW   14.0   14.1   14.1  1016.2  0.00  0.00   0.015   0.000   25.4    49   13.9   25.4   8.99  .0729    117    1    100.0    5 
25/05/18   2:15   13.9   14.0   13.9    93   12.8   1.0   NNW   0.08   2.0   NNW   13.9   14.1   14.1  1016.2  0.00  0.00   0.015   0.000   25.4    49   13.9   25.3   9.00  .0729    116    1    100.0    5 
25/05/18   2:20   13.8   13.9   13.8    93   12.7   1.0   NNW   0.08   4.0   NNW   13.8   13.9   13.9  1016.2  0.00  0.00   0.016   0.000   25.4    49   13.9   25.3   9.00  .0729    115    1    100.0    5 
25/05/18   2:25   13.8   13.8   13.8    93   12.7   2.0   NNW   0.17   4.0   NNW   13.8   13.9   13.9  1016.1  0.00  0.00   0.016   0.000   25.3    49   13.8   25.2   9.00  .0729    117    1    100.0    5 
25/05/18   2:30   13.7   13.8   13.7    93   12.6   2.0   NNW   0.17   5.0   NNW   13.7   13.8   13.8  1016.1  0.00  0.00   0.016   0.000   25.3    49   13.8   25.2   9.00  .0729    117    1    100.0    5 
25/05/18   2:35   13.7   13.7   13.7    93   12.6   3.0   NNW   0.25   5.0   NNW   13.7   13.8   13.8  1016.1  0.00  0.00   0.016   0.000   25.3    49   13.8   25.2   9.00  .0729    117    1    100.0    5 
25/05/18   2:40   13.7   13.7   13.7    93   12.6   4.0   NNW   0.33   6.0   NNW   13.6   13.8   13.7  1016.1  0.00  0.00   0.016   0.000   25.3    49   13.8   25.2   9.00  .0729    115    1    100.0    5 
25/05/18   2:45   13.7   13.7   13.7    93   12.6   4.0   NNW   0.33   7.0   NNW   13.6   13.8   13.7  1016.0  0.00  0.00   0.016   0.000   25.3    49   13.8   25.2   9.00  .0729    117    1    100.0    5 
25/05/18   2:50   13.6   13.7   13.6    93   12.5   4.0   NNW   0.33   8.0   NNW   13.6   13.7   13.7  1015.9  0.00  0.00   0.016   0.000   25.3    49   13.8   25.2   9.00  .0729    116    1    100.0    5 
25/05/18   2:55   13.6   13.6   13.6    93   12.4   4.0   NNW   0.33   8.0   NNW   13.5   13.7   13.6  1015.9  0.00  0.00   0.017   0.000   25.2    49   13.7   25.1   9.00  .0729    116    1    100.0    5 
25/05/18   3:00   13.6   13.6   13.6    93   12.4   4.0   NNW   0.33   6.0   NNW   13.5   13.7   13.6  1015.9  0.00  0.00   0.017   0.000   25.2    49   13.7   25.1   9.00  .0729    117    1    100.0    5 
25/05/18   3:05   13.6   13.6   13.6    93   12.4   5.0   NNW   0.42   8.0   NNW   13.2   13.7   13.3  1016.0  0.00  0.00   0.017   0.000   25.2    49   13.7   25.1   9.00  .0729    117    1    100.0    5 
25/05/18   3:10   13.6   13.6   13.5    93   12.4   4.0   NNW   0.33   6.0   NNW   13.5   13.7   13.6  1016.0  0.00  0.00   0.017   0.000   25.2    49   13.7   25.1   9.00  .0729    116    1    100.0    5 
25/05/18   3:15   13.5   13.6   13.5    93   12.4   4.0   NNW   0.33   7.0   NNW   13.4   13.6   13.6  1016.0  0.00  0.00   0.017   0.000   25.2    49   13.7   25.1   9.00  .0729    117    1    100.0    5 
25/05/18   3:20   13.5   13.6   13.5    93   12.4   5.0   NNW   0.42   7.0   NNW   13.1   13.6   13.2  1016.1  0.00  0.00   0.017   0.000   25.2    49   13.7   25.1   9.00  .0730    116    1    100.0    5 
25/05/18   3:25   13.4   13.5   13.4    93   12.3   4.0   NNW   0.33   8.0   NNW   13.3   13.6   13.4  1016.0  0.00  0.00   0.017   0.000   25.2    49   13.7   25.1   9.00  .0729    115    1    100.0    5 
25/05/18   3:30   13.4   13.4   13.4    93   12.3   5.0   NNW   0.42   8.0   NNW   13.0   13.5   13.1  1016.0  0.00  0.00   0.017   0.000   25.2    49   13.7   25.1   9.00  .0729    116    1    100.0    5 
25/05/18   3:35   13.3   13.4   13.3    93   12.2   5.0   NNW   0.42   8.0   NNW   12.9   13.4   13.1  1016.0  0.00  0.00   0.017   0.000   25.2    49   13.7   25.1   9.00  .0730    115    1    100.0    5 
25/05/18   3:40   13.3   13.3   13.3    93   12.2   5.0   NNW   0.42   9.0   NNW   12.9   13.4   13.0  1016.0  0.00  0.00   0.018   0.000   25.2    49   13.7   25.1   9.00  .0730    115    1    100.0    5 
25/05/18   3:45   13.3   13.3   13.3    93   12.2   5.0   NNW   0.42   7.0   NNW   12.9   13.4   13.0  1016.1  0.00  0.00   0.018   0.000   25.2    49   13.7   25.1   9.00  .0730    116    1    100.0    5 
25/05/18   3:50   13.2   13.3   13.2    93   12.1   4.0   NNW   0.33   7.0   NNW   13.1   13.3   13.2  1016.0  0.00  0.00   0.018   0.000   25.2    49   13.7   25.1   9.00  .0730    117    1    100.0    5 
25/05/18   3:55   13.2   13.2   13.2    93   12.1   5.0   NNW   0.42   8.0   NNW   12.7   13.3   12.8  1015.9  0.00  0.00   0.018   0.000   25.2    49   13.7   25.1   9.00  .0729    117    1    100.0    5 
25/05/18   4:00   13.1   13.2   13.1    93   12.0   5.0   NNW   0.42   7.0   NNW   12.7   13.2   12.8  1016.1  0.00  0.00   0.018   0.000   25.2    49   13.7   25.1   9.00  .0730    116    1    100.0    5 
25/05/18   4:05   13.1   13.2   13.1    94   12.2   5.0   NNW   0.42   7.0   NNW   12.7   13.2   12.8  1016.0  0.00  0.00   0.018   0.000   25.3    49   13.8   25.2   9.00  .0729    117    1    100.0    5 
25/05/18   4:10   13.1   13.1   13.1    94   12.1   5.0   NNW   0.42   8.0   NNW   12.6   13.2   12.7  1015.9  0.00  0.00   0.018   0.000   25.2    49   13.7   25.1   9.00  .0729    117    1    100.0    5 
25/05/18   4:15   13.0   13.1   13.0    94   12.1   5.0   NNW   0.42   8.0   NNW   12.6   13.1   12.7  1016.0  0.00  0.00   0.019   0.000   25.2    49   13.7   25.1   9.00  .0729    114    1    100.0    5 
25/05/18   4:20   12.9   13.0   12.9    93   11.8   4.0   NNW   0.33   6.0   NNW   12.8   13.1   12.9  1016.1  0.00  0.00   0.019   0.000   25.2    49   13.7   25.1   9.00  .0730    117    1    100.0    5 
25/05/18   4:25   12.9   12.9   12.8    93   11.8   4.0   NNW   0.33   7.0   NNW   12.7   13.0   12.8  1016.1  0.00  0.00   0.019   0.000   25.2    49   13.7   25.1   9.00  .0730    116    1    100.0    5 
25/05/18   4:30   12.8   12.9   12.8    93   11.7   4.0   NNW   0.33   6.0   NNW   12.6   12.9   12.7  1016.0  0.00  0.00   0.019   0.000   25.2    49   13.7   25.1   9.00  .0730    116    1    100.0    5 
25/05/18   4:35   12.8   12.8   12.8    93   11.7   5.0   NNW   0.42   7.0   NNW   12.3   12.9   12.4  1016.0  0.00  0.00   0.019   0.000   25.2    49   13.7   25.1   9.00  .0730    115    1    100.0    5 
25/05/18   4:40   12.7   12.8   12.7    94   11.8   4.0   NNW   0.33   7.0   NNW   12.5   12.8   12.6  1016.0  0.00  0.00   0.019   0.000   25.2    49   13.7   25.1   9.00  .0730    114    1    100.0    5 
25/05/18   4:45   12.7   12.7   12.7    94   11.7   4.0   NNW   0.33   7.0   NNW   12.4   12.8   12.6  1016.0  0.00  0.00   0.020   0.000   25.1    49   13.6   25.0   9.01  .0730    117    1    100.0    5 
25/05/18   4:50   12.6   12.7   12.6    94   11.7   4.0   NNW   0.33   7.0   NNW   12.4   12.7   12.5  1016.1  0.00  0.00   0.020   0.000   25.1    49   13.6   25.0   9.01  .0730    116    1    100.0    5 
25/05/18   4:55   12.6   12.6   12.6    94   11.6   5.0   NNW   0.42   7.0   NNW   12.0   12.7   12.1  1016.0  0.00  0.00   0.020   0.000   25.1    49   13.6   25.0   9.01  .0730    118    1    100.0    5 
25/05/18   5:00   12.6   12.6   12.6    94   11.6   5.0   NNW   0.42   8.0   NNW   12.0   12.7   12.1  1015.9  0.00  0.00   0.020   0.000   25.1    49   13.6   25.0   9.01  .0730    112    1     98.2    5 
25/05/18   5:05   12.6   12.6   12.6    94   11.6   5.0     N   0.42   8.0     N   12.0   12.7   12.1  1015.9  0.00  0.00   0.020   0.000   25.1    49   13.6   24.9   9.01  .0730    116    1    100.0    5 
25/05/18   5:10   12.5   12.6   12.5    94   11.6   6.0     N   0.50   8.0     N   11.7   12.6   11.8  1015.9  0.00  0.00   0.020   0.000   25.1    49   13.6   24.9   9.01  .0730    117    1    100.0    5 
25/05/18   5:15   12.5   12.5   12.5    94   11.6   5.0     N   0.42   9.0     N   11.9   12.6   12.1  1015.9  0.00  0.00   0.020   0.000   25.1    49   13.6   24.9   9.01  .0730    115    1    100.0    5 
25/05/18   5:20   12.5   12.5   12.5    94   11.6   5.0     N   0.42   8.0     N   11.9   12.6   12.1  1016.0  0.00  0.00   0.020   0.000   25.1    49   13.6   24.9   9.01  .0730    116    1    100.0    5 
25/05/18   5:25   12.5   12.5   12.5    94   11.6   5.0     N   0.42   7.0     N   11.9   12.6   12.1  1016.0  0.00  0.00   0.020   0.000   25.1    49   13.6   24.9   9.01  .0730    117    1    100.0    5 
25/05/18   5:30   12.5   12.5   12.5    94   11.6   4.0   NNW   0.33   7.0   NNW   12.3   12.6   12.4  1016.0  0.00  0.00   0.020   0.000   25.1    49   13.6   24.9   9.01  .0730    116    1    100.0    5 
25/05/18   5:35   12.5   12.5   12.5    94   11.6   3.0   NNW   0.25   6.0   NNW   12.5   12.6   12.6  1016.1  0.00  0.00   0.020   0.000   25.0    49   13.5   24.8   9.01  .0730    117    1    100.0    5 
25/05/18   5:40   12.4   12.5   12.4    94   11.5   4.0   NNW   0.33   6.0   NNW   12.2   12.6   12.3  1016.0  0.00  0.00   0.020   0.000   25.0    49   13.5   24.8   9.01  .0730    117    1    100.0    5 
25/05/18   5:45   12.4   12.5   12.4    94   11.5   3.0   NNW   0.25   6.0   NNW   12.4   12.6   12.6  1016.1  0.00  0.00   0.020   0.000   25.0    49   13.5   24.8   9.01  .0730    117    1    100.0    5 
25/05/18   5:50   12.4   12.5   12.4    94   11.5   2.0   NNW   0.17   6.0   NNW   12.4   12.6   12.6  1016.1  0.00  0.00   0.020   0.000   25.0    49   13.5   24.8   9.01  .0730    117    1    100.0    5 
25/05/18   5:55   12.5   12.5   12.4    94   11.6   3.0   NNW   0.25   5.0   NNW   12.5   12.6   12.6  1016.1  0.00  0.00   0.020   0.000   25.0    49   13.5   24.8   9.01  .0730    116    1    100.0    5 
25/05/18   6:00   12.5   12.5   12.4    94   11.6   3.0   NNW   0.25   5.0   NNW   12.5   12.6   12.6  1016.1  0.00  0.00   0.020   0.000   25.0    49   13.5   24.8   9.01  .0730    118    1    100.0    5 
25/05/18   6:05   12.5   12.5   12.5    94   11.6   2.0   NNW   0.17   5.0   NNW   12.5   12.6   12.6  1016.1  0.00  0.00   0.020   0.000   25.1    49   13.6   24.9   9.01  .0730    116    1    100.0    5 
25/05/18   6:10   12.6   12.6   12.5    94   11.6   3.0   NNW   0.25   5.0   NNW   12.6   12.7   12.7  1016.2  0.00  0.00   0.020   0.000   25.1    49   13.6   24.9   9.01  .0730    116    1    100.0    5 
25/05/18   6:15   12.6   12.6   12.6    94   11.7   4.0   NNW   0.33   6.0   NNW   12.4   12.7   12.5  1016.1  0.00  0.00   0.020   0.000   25.1    49   13.6   24.9   9.01  .0730    117    1    100.0    5 
25/05/18   6:20   12.7   12.7   12.6    94   11.7   4.0   NNW   0.33   7.0   NNW   12.4   12.8   12.6  1016.0  0.00  0.00   0.020   0.000   25.1    49   13.6   24.9   9.01  .0730    116    1    100.0    5 
25/05/18   6:25   12.7   12.7   12.7    94   11.8   5.0   NNW   0.42   9.0   NNW   12.2   12.8   12.3  1016.0  0.00  0.00   0.019   0.000   25.1    49   13.6   24.9   9.01  .0730    116    1    100.0    5 
25/05/18   6:30   12.8   12.8   12.7    94   11.8   4.0     N   0.33   6.0     N   12.6   12.9   12.7  1016.0  0.00  0.00   0.019   0.000   25.1    49   13.6   25.0   9.01  .0730    117    1    100.0    5 
25/05/18   6:35   12.8   12.8   12.8    94   11.9   5.0     N   0.42   8.0     N   12.3   12.9   12.4  1015.9  0.00  0.00   0.019   0.000   25.1    49   13.6   25.0   9.01  .0730    114    1    100.0    5 
25/05/18   6:40   12.9   12.9   12.8    94   12.0   4.0     N   0.33   8.0     N   12.8   13.1   12.9  1016.0  0.00  0.00   0.019   0.000   25.1    49   13.6   25.0   9.01  .0730    117    1    100.0    5 
25/05/18   6:45   13.0   13.0   12.9    94   12.1   4.0     N   0.33   7.0     N   12.8   13.1   12.9  1016.1  0.00  0.00   0.019   0.000   25.2    49   13.7   25.1   9.00  .0730    117    1    100.0    5 
25/05/18   6:50   13.1   13.1   13.0    94   12.1   6.0     N   0.50  10.0     N   12.3   13.2   12.4  1016.1  0.00  0.00   0.018   0.000   25.2    49   13.7   25.1   9.00  .0730    117    1    100.0    5 
25/05/18   6:55   13.2   13.2   13.1    94   12.2   4.0   NNW   0.33   8.0   NNW   13.0   13.3   13.1  1016.1  0.00  0.00   0.018   0.000   25.2    49   13.7   25.1   9.00  .0730    117    1    100.0    5 
25/05/18   7:00   13.3   13.3   13.2    94   12.3   3.0     N   0.25   7.0     N   13.3   13.4   13.4  1016.1  0.00  0.00   0.018   0.000   25.2    49   13.7   25.1   9.00  .0730    117    1    100.0    5 
25/05/18   7:05   13.3   13.3   13.2    94   12.4   4.0     N   0.33   8.0   NNW   13.2   13.4   13.3  1016.1  0.00  0.00   0.017   0.000   25.3    49   13.8   25.2   9.00  .0729    118    1    100.0    5 
25/05/18   7:10   13.4   13.4   13.3    94   12.5   4.0     N   0.33   7.0     N   13.3   13.6   13.4  1016.2  0.00  0.00   0.017   0.000   25.3    49   13.8   25.2   9.00  .0729    117    1    100.0    5 
25/05/18   7:15   13.5   13.5   13.4    94   12.6   3.0     N   0.25   6.0     N   13.5   13.6   13.6  1016.3  0.00  0.00   0.017   0.000   25.3    49   13.8   25.2   9.00  .0730    117    1    100.0    5 
25/05/18   7:20   13.6   13.6   13.5    94   12.7   4.0     N   0.33   6.0     N   13.6   13.7   13.7  1016.3  0.00  0.00   0.016   0.000   25.3    49   13.8   25.2   9.00  .0729    117    1    100.0    5 
25/05/18   7:25   13.7   13.7   13.6    94   12.7   3.0     N   0.25   6.0     N   13.7   13.8   13.8  1016.4  0.00  0.00   0.016   0.000   25.3    49   13.8   25.2   9.00  .0729    117    1    100.0    5 
25/05/18   7:30   13.8   13.8   13.7    94   12.8   1.0     N   0.08   4.0     N   13.8   13.9   13.9  1016.4  0.00  0.00   0.016   0.000   25.4    49   13.9   25.3   9.00  .0729    116    1    100.0    5 
25/05/18   7:35   13.9   13.9   13.8    94   12.9   1.0     N   0.08   3.0     N   13.9   14.0   14.0  1016.5  0.00  0.00   0.015   0.000   25.4    49   13.9   25.3   9.00  .0729    117    1    100.0    5 
25/05/18   7:40   14.0   14.0   13.9    94   13.0   1.0     N   0.08   4.0     N   14.0   14.1   14.1  1016.5  0.00  0.00   0.015   0.000   25.4    49   13.9   25.4   8.99  .0729    116    1    100.0    5 
25/05/18   7:45   14.1   14.1   14.0    94   13.2   0.0     N   0.00   3.0     N   14.1   14.2   14.2  1016.6  0.00  0.00   0.015   0.000   25.5    49   14.0   25.4   8.99  .0729    115    1    100.0    5 
25/05/18   7:50   14.2   14.2   14.1    94   13.3   1.0     N   0.08   3.0     N   14.2   14.3   14.3  1016.6  0.00  0.00   0.014   0.000   25.5    49   14.0   25.4   8.99  .0729    117    1    100.0    5 
25/05/18   7:55   14.3   14.3   14.3    94   13.4   1.0     N   0.08   4.0     N   14.3   14.4   14.4  1016.8  0.00  0.00   0.014   0.000   25.6    49   14.1   25.5   8.99  .0729    116    1    100.0    5 
25/05/18   8:00   14.3   14.3   14.3    94   13.4   1.0     N   0.08   4.0     N   14.3   14.4   14.4  1016.8  0.00  0.00   0.014   0.000   25.6    49   14.1   25.5   8.99  .0729    117    1    100.0    5 
25/05/18   8:05   14.3   14.3   14.3    94   13.3   0.0     N   0.00   2.0     N   14.3   14.4   14.4  1016.7  0.00  0.00   0.014   0.000   25.6    49   14.1   25.6   8.99  .0729    117    1    100.0    5 
25/05/18   8:10   14.2   14.3   14.2    94   13.2   0.0   ---   0.00   0.0   ---   14.2   14.3   14.3  1016.8  0.00  0.00   0.014   0.000   25.6    49   14.1   25.6   8.99  .0729    118    1    100.0    5 
25/05/18   8:15   14.2   14.2   14.2    94   13.3   1.0     N   0.08   6.0     N   14.2   14.3   14.3  1016.8  0.00  0.00   0.014   0.000   25.6    49   14.1   25.6   8.99  .0729    117    1    100.0    5 
25/05/18   8:20   14.3   14.3   14.2    93   13.2   5.0     E   0.42   7.0   ENE   14.0   14.4   14.1  1016.8  0.00  0.00   0.014   0.000   25.7    49   14.2   25.7   8.99  .0729    116    1    100.0    5 
25/05/18   8:25   14.3   14.3   14.3    93   13.2   5.0     E   0.42   7.0     E   14.0   14.4   14.1  1016.8  0.00  0.00   0.014   0.000   25.7    49   14.2   25.7   8.99  .0729    116    1    100.0    5 
25/05/18   8:30   14.3   14.3   14.2    93   13.2   2.0     E   0.17   6.0     E   14.3   14.4   14.4  1016.7  0.00  0.00   0.014   0.000   25.7    49   14.2   25.7   8.99  .0729    117    1    100.0    5 
25/05/18   8:35   14.6   14.6   14.3    94   13.6   1.0     E   0.08   2.0     E   14.6   14.7   14.7  1016.7  0.00  0.00   0.013   0.000   25.7    49   14.2   25.7   8.98  .0728    117    1    100.0    5 
25/05/18   8:40   14.7   14.7   14.6    93   13.5   2.0     E   0.17   3.0     E   14.7   14.8   14.8  1016.7  0.00  0.00   0.013   0.000   25.7    49   14.2   25.7   8.98  .0728    115    1    100.0    5 
25/05/18   8:45   14.8   14.8   14.7    93   13.7   2.0     E   0.17   3.0     E   14.8   14.9   14.9  1016.7  0.00  0.00   0.012   0.000   25.7    49   14.2   25.7   8.98  .0728    116    1    100.0    5 
25/05/18   8:50   14.7   14.8   14.7    93   13.6   2.0     E   0.17   3.0     E   14.7   14.9   14.9  1016.7  0.00  0.00   0.013   0.000   25.8    49   14.3   25.8   8.98  .0728    117    1    100.0    5 
25/05/18   8:55   14.8   14.8   14.7    93   13.7   1.0     E   0.08   3.0     E   14.8   15.0   15.0  1016.7  0.00  0.00   0.012   0.000   25.8    49   14.3   25.8   8.98  .0728    117    1    100.0    5 
25/05/18   9:00   15.0   15.0   14.8    93   13.9   2.0     E   0.17   3.0     E   15.0   15.2   15.2  1016.7  0.00  0.00   0.012   0.000   25.8    49   14.3   25.8   8.98  .0728    117    1    100.0    5 
25/05/18   9:05   15.2   15.2   15.0    93   14.0   2.0     E   0.17   3.0     E   15.2   15.3   15.3  1016.7  0.00  0.00   0.011   0.000   25.8    49   14.3   25.8   8.98  .0728    116    1    100.0    5 
25/05/18   9:10   15.2   15.2   15.2    93   14.1   3.0     E   0.25   5.0     E   15.2   15.4   15.4  1016.7  0.00  0.00   0.011   0.000   25.9    49   14.4   25.9   8.98  .0728    118    1    100.0    5 
25/05/18   9:15   15.2   15.3   15.2    93   14.0   3.0     E   0.25   5.0     E   15.2   15.3   15.3  1016.8  0.00  0.00   0.011   0.000   25.9    49   14.4   25.9   8.98  .0728    117    1    100.0    5 
25/05/18   9:20   15.0   15.2   14.9    92   13.7   4.0     E   0.33   5.0     E   15.0   15.2   15.2  1016.8  0.00  0.00   0.012   0.000   25.9    48   14.1   25.9   8.88  .0728    117    1    100.0    5 
25/05/18   9:25   14.8   14.9   14.8    92   13.5   3.0     E   0.25   5.0     E   14.8   14.9   14.9  1016.8  0.00  0.00   0.012   0.000   26.0    48   14.1   26.0   8.87  .0728    117    1    100.0    5 
25/05/18   9:30   14.7   14.8   14.7    92   13.4   3.0     E   0.25   5.0     E   14.7   14.8   14.8  1016.8  0.00  0.00   0.013   0.000   26.0    48   14.1   26.0   8.87  .0728    117    1    100.0    5 
25/05/18   9:35   14.8   14.8   14.7    92   13.5   4.0     E   0.33   6.0     E   14.8   14.9   14.9  1016.8  0.00  0.00   0.012   0.000   26.0    48   14.1   26.0   8.87  .0728    116    1    100.0    5 
25/05/18   9:40   14.8   14.8   14.8    92   13.5   5.0     E   0.42   7.0     E   14.6   14.9   14.7  1016.9  0.00  0.00   0.012   0.000   26.0    48   14.1   26.0   8.87  .0728    116    1    100.0    5 
25/05/18   9:45   14.7   14.8   14.7    92   13.4   5.0     E   0.42   7.0     E   14.6   14.8   14.7  1016.9  0.00  0.00   0.013   0.000   26.0    48   14.1   26.0   8.87  .0728    117    1    100.0    5 
25/05/18   9:50   14.6   14.7   14.6    92   13.3   6.0     E   0.50   7.0     E   14.2   14.7   14.3  1016.9  0.00  0.00   0.013   0.000   26.0    48   14.1   26.0   8.87  .0728    116    1    100.0    5 
25/05/18   9:55   14.6   14.7   14.6    92   13.3   4.0     E   0.33   6.0     E   14.6   14.7   14.7  1016.9  0.00  0.00   0.013   0.000   26.0    48   14.1   26.0   8.87  .0728    116    1    100.0    5 
25/05/18  10:00   14.6   14.7   14.6    92   13.3   4.0     E   0.33   6.0     E   14.6   14.7   14.7  1016.8  0.00  0.00   0.013   0.000   26.0    48   14.1   26.0   8.87  .0728    117    1    100.0    5 
25/05/18  10:05   14.5   14.6   14.5    92   13.2   4.0     E   0.33   6.0     E   14.5   14.6   14.6  1016.8  0.00  0.00   0.013   0.000   26.0    48   14.1   26.0   8.87  .0728    117    1    100.0    5 
25/05/18  10:10   14.7   14.7   14.5    93   13.5   6.0     E   0.50   8.0     E   14.3   14.8   14.4  1016.9  0.00  0.00   0.013   0.000   26.0    48   14.1   26.0   8.87  .0728    117    1    100.0    5 
25/05/18  10:15   14.7   14.7   14.7    92   13.4   4.0   WSW   0.33   7.0   WSW   14.7   14.8   14.8  1016.9  0.00  0.00   0.013   0.000   26.0    48   14.1   26.0   8.87  .0728    117    1    100.0    5 
25/05/18  10:20   14.9   14.9   14.7    92   13.6   3.0     W   0.25   6.0     W   14.9   15.1   15.1  1016.8  0.00  0.00   0.012   0.000   26.0    48   14.1   26.0   8.87  .0728    117    1    100.0    5 
25/05/18  10:25   15.0   15.0   14.9    92   13.7   3.0     W   0.25   6.0     W   15.0   15.2   15.2  1017.0  0.00  0.00   0.012   0.000   26.0    48   14.1   26.0   8.87  .0728    117    1    100.0    5 
25/05/18  10:30   15.1   15.1   15.0    92   13.8   4.0     W   0.33   8.0   WNW   15.1   15.2   15.2  1016.9  0.00  0.00   0.011   0.000   26.0    48   14.1   26.0   8.87  .0728    117    1    100.0    5 
25/05/18  10:35   15.2   15.2   15.1    91   13.7   3.0   WNW   0.25   7.0   WNW   15.2   15.3   15.3  1016.8  0.00  0.00   0.011   0.000   26.0    48   14.1   26.0   8.87  .0728    117    1    100.0    5 
25/05/18  10:40   15.2   15.2   15.1    91   13.7   4.0     W   0.33   6.0   WNW   15.2   15.3   15.3  1016.9  0.00  0.00   0.011   0.000   26.0    48   14.1   26.0   8.87  .0728    116    1    100.0    5 
25/05/18  10:45   15.4   15.4   15.2    91   14.0   3.0   WNW   0.25   7.0   WNW   15.4   15.6   15.6  1016.8  0.00  0.00   0.010   0.000   26.0    48   14.1   26.0   8.87  .0728    116    1    100.0    5 
25/05/18  10:50   15.5   15.5   15.4    90   13.9   3.0   WNW   0.25   6.0   WNW   15.5   15.7   15.7  1016.9  0.00  0.00   0.010   0.000   26.1    48   14.2   26.1   8.87  .0728    117    1    100.0    5 
25/05/18  10:55   15.6   15.6   15.5    90   13.9   4.0   WNW   0.33   8.0   WNW   15.6   15.7   15.7  1016.8  0.00  0.00   0.010   0.000   26.1    48   14.2   26.1   8.87  .0728    116    1    100.0    5 
25/05/18  11:00   15.6   15.6   15.5    90   14.0   1.0   WNW   0.08   4.0   WNW   15.6   15.8   15.8  1016.9  0.00  0.00   0.009   0.000   26.1    48   14.2   26.1   8.87  .0728    116    1    100.0    5 
25/05/18  11:05   15.7   15.7   15.6    90   14.1   2.0   WNW   0.17   5.0   WNW   15.7   15.9   15.9  1016.8  0.00  0.00   0.009   0.000   26.1    48   14.2   26.1   8.87  .0728    117    1    100.0    5 
25/05/18  11:10   15.9   15.9   15.7    90   14.3   4.0   WNW   0.33   8.0    NW   15.9   16.1   16.1  1016.8  0.00  0.00   0.008   0.000   26.1    48   14.2   26.1   8.87  .0728    116    1    100.0    5 
25/05/18  11:15   15.7   15.9   15.7    89   13.9   5.0   WSW   0.42   8.0   WSW   15.7   15.9   15.9  1016.8  0.00  0.00   0.009   0.000   26.1    48   14.2   26.1   8.87  .0728    117    1    100.0    5 
25/05/18  11:20   15.6   15.7   15.6    89   13.7   4.0   WSW   0.33   5.0   WSW   15.6   15.7   15.7  1016.8  0.00  0.00   0.010   0.000   26.2    48   14.3   26.2   8.87  .0727    118    1    100.0    5 
25/05/18  11:25   15.5   15.6   15.4    90   13.9   3.0   WSW   0.25   5.0   WSW   15.5   15.7   15.7  1016.8  0.00  0.00   0.010   0.000   26.2    48   14.3   26.2   8.87  .0727    116    1    100.0    5 
25/05/18  11:30   15.4   15.6   15.4    90   13.8   3.0   WSW   0.25   5.0   WSW   15.4   15.6   15.6  1016.8  0.00  0.00   0.010   0.000   26.2    48   14.3   26.2   8.87  .0727    117    1    100.0    5 
25/05/18  11:35   15.3   15.4   15.3    90   13.7   4.0   WSW   0.33   6.0   WSW   15.3   15.5   15.5  1016.8  0.00  0.00   0.010   0.000   26.2    48   14.3   26.2   8.87  .0727    116    1    100.0    5 
25/05/18  11:40   15.4   15.4   15.3    91   13.9   4.0   WSW   0.33   6.0   WSW   15.4   15.6   15.6  1016.8  0.00  0.00   0.010   0.000   26.2    48   14.3   26.2   8.87  .0727    117    1    100.0    5 
25/05/18  11:45   15.6   15.6   15.4    91   14.1   4.0   WSW   0.33   6.0   WSW   15.6   15.7   15.7  1016.8  0.00  0.00   0.010   0.000   26.3    48   14.4   26.3   8.86  .0727    115    1    100.0    5 
25/05/18  11:50   15.5   15.6   15.4    90   13.9   5.0   WSW   0.42   7.0   WSW   15.5   15.7   15.7  1016.8  0.00  0.00   0.010   0.000   26.3    48   14.4   26.3   8.86  .0727    116    1    100.0    5 
25/05/18  11:55   15.5   15.5   15.4    90   13.9   5.0   WSW   0.42   6.0   WSW   15.5   15.7   15.7  1016.9  0.00  0.00   0.010   0.000   26.3    48   14.4   26.3   8.86  .0727    114    1    100.0    5 
25/05/18  12:00   15.7   15.7   15.5    91   14.3   5.0   WSW   0.42   6.0   WSW   15.7   15.9   15.9  1016.9  0.00  0.00   0.009   0.000   26.3    48   14.4   26.3   8.86  .0727    116    1    100.0    5 
25/05/18  12:05   15.6   15.7   15.6    90   13.9   5.0   WSW   0.42   6.0   WSW   15.6   15.7   15.7  1016.9  0.00  0.00   0.010   0.000   26.4    48   14.5   26.3   8.86  .0727    116    1    100.0    5 
25/05/18  12:10   15.7   15.7   15.6    91   14.2   5.0   WSW   0.42   7.0   WSW   15.7   15.8   15.8  1017.0  0.00  0.00   0.009   0.000   26.4    48   14.5   26.4   8.86  .0727    117    1    100.0    5 
25/05/18  12:15   15.8   15.8   15.7    90   14.1   5.0    SW   0.42   7.0    SW   15.8   15.9   15.9  1017.1  0.00  0.00   0.009   0.000   26.4    48   14.5   26.4   8.86  .0727    117    1    100.0    5 
25/05/18  12:20   15.9   15.9   15.7    91   14.4   5.0    SW   0.42   6.0    SW   15.9   16.1   16.1  1017.1  0.00  0.00   0.008   0.000   26.5    48   14.6   26.4   8.86  .0727    117    1    100.0    5 
25/05/18  12:25   16.0   16.0   15.9    90   14.4   5.0    SW   0.42   6.0    SW   16.0   16.2   16.2  1017.1  0.00  0.00   0.008   0.000   26.6    48   14.6   26.5   8.85  .0726    117    1    100.0    5 
25/05/18  12:30   15.9   16.0   15.9    90   14.3   5.0    SW   0.42   7.0    SW   15.9   16.2   16.2  1017.1  0.00  0.00   0.008   0.000   26.6    48   14.7   26.6   8.85  .0726    116    1    100.0    5 
25/05/18  12:35   16.2   16.2   15.9    90   14.6   6.0    SW   0.50   7.0    SW   16.1   16.4   16.3  1017.2  0.00  0.00   0.007   0.000   26.6    48   14.7   26.6   8.85  .0726    117    1    100.0    5 
25/05/18  12:40   16.2   16.2   16.2    90   14.5   6.0    SW   0.50   7.0    SW   16.1   16.4   16.3  1017.1  0.00  0.00   0.008   0.000   26.7    48   14.7   26.6   8.85  .0726    117    1    100.0    5 
25/05/18  12:45   16.2   16.2   16.2    90   14.5   5.0    SW   0.42   7.0    SW   16.2   16.4   16.4  1017.0  0.00  0.00   0.008   0.000   26.7    48   14.8   26.7   8.85  .0726    117    1    100.0    5 
25/05/18  12:50   16.1   16.2   16.1    89   14.2   5.0    SW   0.42   6.0    SW   16.1   16.3   16.3  1017.0  0.00  0.00   0.008   0.000   26.7    48   14.8   26.7   8.85  .0726    117    1    100.0    5 
25/05/18  12:55   16.1   16.1   16.0    89   14.2   4.0    SW   0.33   6.0    SW   16.1   16.3   16.3  1017.0  0.00  0.00   0.008   0.000   26.8    47   14.5   26.7   8.65  .0726    116    1    100.0    5 
25/05/18  13:00   16.0   16.1   16.0    89   14.2   5.0    SW   0.42   6.0    SW   16.0   16.2   16.2  1017.0  0.00  0.00   0.008   0.000   26.8    47   14.6   26.7   8.64  .0726    116    1    100.0    5 
25/05/18  13:05   16.0   16.0   16.0    89   14.2   6.0    SW   0.50   7.0    SW   15.9   16.2   16.1  1017.1  0.00  0.00   0.008   0.000   26.9    47   14.6   26.8   8.64  .0726    117    1    100.0    5 
25/05/18  13:10   16.1   16.1   16.0    89   14.2   6.0    SW   0.50   7.0    SW   15.9   16.3   16.2  1017.1  0.00  0.00   0.008   0.000   26.9    47   14.6   26.8   8.64  .0726    114    1    100.0    5 
25/05/18  13:15   16.1   16.1   16.1    89   14.2   6.0    SW   0.50   7.0    SW   15.9   16.3   16.2  1017.1  0.00  0.00   0.008   0.000   26.9    47   14.7   26.8   8.64  .0725    117    1    100.0    5 
25/05/18  13:20   16.0   16.1   15.9    89   14.2   5.0    SW   0.42   7.0    SW   16.0   16.2   16.2  1017.1  0.00  0.00   0.008   0.000   26.9    47   14.7   26.8   8.64  .0725    117    1    100.0    5 
25/05/18  13:25   15.9   16.1   15.9    88   14.0   6.0    SW   0.50   8.0    SW   15.8   16.1   15.9  1017.1  0.00  0.00   0.008   0.000   27.0    47   14.7   26.9   8.64  .0725    118    1    100.0    5 
25/05/18  13:30   16.0   16.0   15.9    89   14.2   5.0    SW   0.42   6.0    SW   16.0   16.2   16.2  1017.1  0.00  0.00   0.008   0.000   27.1    47   14.8   26.9   8.64  .0725    117    1    100.0    5 
25/05/18  13:35   16.0   16.1   16.0    88   14.0   5.0    SW   0.42   7.0    SW   16.0   16.2   16.2  1017.2  0.00  0.00   0.008   0.000   27.1    47   14.8   27.0   8.63  .0725    117    1    100.0    5 
25/05/18  13:40   16.2   16.2   16.0    89   14.4   5.0    SW   0.42   6.0    SW   16.2   16.4   16.4  1017.2  0.00  0.00   0.008   0.000   27.2    47   14.9   27.1   8.63  .0725    117    1    100.0    5 
25/05/18  13:45   16.3   16.3   16.2    88   14.3   5.0    SW   0.42   6.0    SW   16.3   16.6   16.6  1017.1  0.00  0.00   0.007   0.000   27.2    47   14.9   27.1   8.63  .0725    117    1    100.0    5 
25/05/18  13:50   16.3   16.4   16.3    88   14.3   5.0    SW   0.42   6.0    SW   16.3   16.6   16.6  1017.1  0.00  0.00   0.007   0.000   27.2    47   14.9   27.1   8.63  .0725    116    1    100.0    5 
25/05/18  13:55   16.6   16.6   16.3    88   14.6   4.0    SW   0.33   6.0    SW   16.6   16.8   16.8  1017.1  0.00  0.00   0.006   0.000   27.3    47   15.0   27.2   8.63  .0724    117    1    100.0    5 
25/05/18  14:00   16.7   16.7   16.6    88   14.7   5.0    SW   0.42   7.0    SW   16.7   16.9   16.9  1017.1  0.00  0.00   0.006   0.000   27.3    47   15.0   27.3   8.63  .0724    117    1    100.0    5 
25/05/18  14:05   16.6   16.7   16.6    87   14.4   5.0    SW   0.42   7.0    SW   16.6   16.8   16.8  1017.0  0.00  0.00   0.006   0.000   27.4    47   15.1   27.4   8.62  .0724    116    1    100.0    5 
25/05/18  14:10   16.6   16.6   16.6    87   14.4   5.0    SW   0.42   7.0    SW   16.6   16.8   16.8  1017.1  0.00  0.00   0.006   0.000   27.5    47   15.2   27.5   8.62  .0724    116    1    100.0    5 
25/05/18  14:15   16.5   16.6   16.5    87   14.3   5.0    SW   0.42   7.0    SW   16.5   16.7   16.7  1017.2  0.00  0.00   0.006   0.000   27.6    47   15.2   27.6   8.62  .0724    117    1    100.0    5 
25/05/18  14:20   16.4   16.5   16.4    87   14.3   5.0    SW   0.42   7.0    SW   16.4   16.6   16.6  1017.2  0.00  0.00   0.007   0.000   27.6    47   15.3   27.7   8.62  .0723    117    1    100.0    5 
25/05/18  14:25   16.4   16.4   16.4    87   14.2   5.0    SW   0.42   6.0    SW   16.4   16.6   16.6  1017.2  0.00  0.00   0.007   0.000   27.7    47   15.3   27.7   8.61  .0723    118    1    100.0    5 
25/05/18  14:30   16.4   16.4   16.4    87   14.3   6.0    SW   0.50   8.0    SW   16.4   16.6   16.6  1017.3  0.00  0.00   0.007   0.000   27.7    47   15.4   27.8   8.61  .0723    117    1    100.0    5 
25/05/18  14:35   16.5   16.5   16.4    87   14.3   6.0    SW   0.50   7.0    SW   16.4   16.7   16.7  1017.3  0.00  0.00   0.006   0.000   27.7    47   15.4   27.8   8.61  .0723    116    1    100.0    5 
25/05/18  14:40   16.4   16.5   16.4    86   14.0   5.0    SW   0.42   7.0    SW   16.4   16.6   16.6  1017.2  0.00  0.00   0.007   0.000   27.7    47   15.4   27.8   8.61  .0723    117    1    100.0    5 
25/05/18  14:45   16.6   16.6   16.4    87   14.4   5.0    SW   0.42   6.0    SW   16.6   16.8   16.8  1017.2  0.00  0.00   0.006   0.000   27.8    47   15.4   27.9   8.61  .0723    117    1    100.0    5 
25/05/18  14:50   16.8   16.8   16.6    87   14.6   5.0    SW   0.42   8.0    SW   16.8   17.0   17.0  1017.2  0.00  0.00   0.005   0.000   27.8    47   15.5   27.9   8.61  .0723    115    1    100.0    5 
25/05/18  14:55   16.8   16.8   16.8    86   14.4   5.0    SW   0.42   7.0    SW   16.8   17.0   17.0  1017.2  0.00  0.00   0.005   0.000   27.9    47   15.5   28.1   8.61  .0723    116    1    100.0    5 
25/05/18  15:00   16.8   16.8   16.8    85   14.2   6.0    SW   0.50   8.0    SW   16.8   16.9   16.9  1017.2  0.00  0.00   0.005   0.000   27.9    47   15.6   28.2   8.60  .0722    117    1    100.0    5 
25/05/18  15:05   16.9   16.9   16.7    86   14.5   6.0    SW   0.50   8.0    SW   16.9   17.1   17.1  1017.3  0.00  0.00   0.005   0.000   27.9    47   15.6   28.2   8.60  .0722    117    1    100.0    5 
25/05/18  15:10   16.8   16.9   16.8    86   14.5   6.0    SW   0.50   7.0    SW   16.8   17.1   17.1  1017.2  0.00  0.00   0.005   0.000   28.0    47   15.6   28.2   8.60  .0722    117    1    100.0    5 
25/05/18  15:15   16.9   16.9   16.8    86   14.5   5.0    SW   0.42   7.0    SW   16.9   17.1   17.1  1017.3  0.00  0.00   0.005   0.000   28.1    47   15.7   28.3   8.60  .0722    116    1    100.0    5 
25/05/18  15:20   16.8   16.9   16.8    85   14.3   6.0    SW   0.50   8.0    SW   16.8   17.1   17.1  1017.1  0.00  0.00   0.005   0.000   28.1    47   15.7   28.4   8.60  .0722    115    1    100.0    5 
25/05/18  15:25   16.7   16.8   16.7    85   14.2   6.0    SW   0.50   7.0    SW   16.7   16.9   16.9  1017.1  0.00  0.00   0.006   0.000   28.2    47   15.8   28.5   8.60  .0722    116    1    100.0    5 
25/05/18  15:30   16.8   16.8   16.7    85   14.2   6.0    SW   0.50   7.0    SW   16.8   16.9   16.9  1017.1  0.00  0.00   0.005   0.000   28.2    47   15.8   28.5   8.60  .0722    117    1    100.0    5 
25/05/18  15:35   16.6   16.7   16.6    85   14.1   6.0    SW   0.50   8.0    SW   16.6   16.8   16.8  1017.1  0.00  0.00   0.006   0.000   28.2    47   15.8   28.6   8.59  .0721    117    1    100.0    5 
25/05/18  15:40   16.6   16.6   16.6    86   14.2   5.0    SW   0.42   7.0    SW   16.6   16.7   16.7  1017.1  0.00  0.00   0.006   0.000   28.3    47   15.9   28.7   8.59  .0721    117    1    100.0    5 
25/05/18  15:45   16.7   16.7   16.6    87   14.5   5.0    SW   0.42   7.0    SW   16.7   16.9   16.9  1017.2  0.00  0.00   0.006   0.000   28.3    47   15.9   28.8   8.59  .0721    117    1    100.0    5 
25/05/18  15:50   16.6   16.8   16.6    86   14.3   5.0    SW   0.42   7.0    SW   16.6   16.8   16.8  1017.2  0.00  0.00   0.006   0.000   28.3    47   15.9   28.8   8.59  .0721    117    1    100.0    5 
25/05/18  15:55   16.4   16.6   16.4    86   14.0   4.0    SW   0.33   7.0    SW   16.4   16.6   16.6  1017.2  0.00  0.00   0.007   0.000   28.4    47   16.0   28.8   8.59  .0721    117    1    100.0    5 
25/05/18  16:00   16.3   16.4   16.3    86   13.9   4.0    SW   0.33   6.0    SW   16.3   16.4   16.4  1017.1  0.00  0.00   0.007   0.000   28.4    47   16.0   28.9   8.59  .0721    117    1    100.0    5 
25/05/18  16:05   16.6   16.6   16.3    87   14.4   4.0    SW   0.33   6.0    SW   16.6   16.8   16.8  1017.1  0.00  0.00   0.006   0.000   28.5    47   16.1   29.1   8.58  .0720    116    1    100.0    5 
25/05/18  16:10   16.6   16.7   16.6    86   14.3   4.0    SW   0.33   5.0    SW   16.6   16.8   16.8  1017.0  0.00  0.00   0.006   0.000   28.6    47   16.1   29.1   8.58  .0720    117    1    100.0    5 
25/05/18  16:15   16.8   16.8   16.6    86   14.5   2.0    SW   0.17   4.0    SW   16.8   17.1   17.1  1016.9  0.00  0.00   0.005   0.000   28.6    47   16.1   29.1   8.58  .0720    117    1    100.0    5 
25/05/18  16:20   16.9   16.9   16.9    85   14.3   2.0    SW   0.17   5.0    SW   16.9   17.1   17.1  1016.8  0.00  0.00   0.005   0.000   28.6    47   16.2   29.2   8.58  .0720    117    1    100.0    5 
25/05/18  16:25   17.1   17.1   16.8    85   14.5   2.0    SW   0.17   4.0    SW   17.1   17.3   17.3  1016.8  0.00  0.00   0.004   0.000   28.7    47   16.2   29.3   8.58  .0720    117    1    100.0    5 
25/05/18  16:30   17.3   17.3   17.1    85   14.7   3.0    SW   0.25   5.0    SW   17.3   17.6   17.6  1016.9  0.00  0.00   0.004   0.000   28.7    47   16.3   29.4   8.58  .0720    117    1    100.0    5 
25/05/18  16:35   17.2   17.3   17.2    85   14.7   2.0    SW   0.17   4.0    SW   17.2   17.5   17.5  1016.8  0.00  0.00   0.004   0.000   28.7    47   16.3   29.4   8.58  .0720    118    1    100.0    5 
25/05/18  16:40   17.3   17.3   17.2    84   14.6   3.0    SW   0.25   5.0    SW   17.3   17.6   17.6  1016.7  0.00  0.00   0.003   0.000   28.8    47   16.3   29.5   8.57  .0719    117    1    100.0    5 
25/05/18  16:45   17.4   17.4   17.3    84   14.7   3.0    SW   0.25   5.0    SW   17.4   17.7   17.7  1016.7  0.00  0.00   0.003   0.000   28.8    47   16.4   29.6   8.57  .0719    117    1    100.0    5 
25/05/18  16:50   17.4   17.5   17.4    83   14.5   4.0    SW   0.33   6.0    SW   17.4   17.7   17.7  1016.7  0.00  0.00   0.003   0.000   28.9    47   16.4   29.7   8.57  .0719    117    1    100.0    5 
25/05/18  16:55   17.3   17.4   17.3    84   14.6   3.0    SW   0.25   5.0    SW   17.3   17.6   17.6  1016.7  0.00  0.00   0.003   0.000   28.9    47   16.4   29.7   8.57  .0719    117    1    100.0    5 
25/05/18  17:00   17.3   17.4   17.3    83   14.4   3.0    SW   0.25   6.0    SW   17.3   17.6   17.6  1016.7  0.00  0.00   0.003   0.000   28.9    47   16.5   29.7   8.57  .0719    117    1    100.0    5 
25/05/18  17:05   17.2   17.3   17.2    83   14.3   4.0    SW   0.33   6.0    SW   17.2   17.4   17.4  1016.7  0.00  0.00   0.004   0.000   29.0    47   16.5   29.8   8.57  .0719    116    1    100.0    5 
25/05/18  17:10   16.9   17.2   16.9    83   14.0   4.0    SW   0.33   5.0    SW   16.9   17.1   17.1  1016.7  0.00  0.00   0.005   0.000   29.0    47   16.5   29.8   8.57  .0719    117    1    100.0    5 
25/05/18  17:15   16.8   16.9   16.8    84   14.1   4.0    SW   0.33   6.0    SW   16.8   16.9   16.9  1016.7  0.00  0.00   0.005   0.000   29.1    47   16.6   29.8   8.56  .0718    116    1    100.0    5 
25/05/18  17:20   16.6   16.8   16.6    84   13.8   3.0    SW   0.25   5.0    SW   16.6   16.7   16.7  1016.7  0.00  0.00   0.006   0.000   29.1    47   16.6   29.8   8.56  .0718    117    1    100.0    5 
102796